<?xml version="1.0" encoding="UTF-8" standalone="no" ?>
<gpx xmlns="http://www.topografix.com/GPX/1/1" xmlns:xsi="http://www.w3.org/2001/XMLSchema-instance" xsi:schemaLocation="http://www.topografix.com/GPX/1/1 http://www.topografix.com/GPX/1/1/gpx.xsd" version="1.1" creator="VisuGPX - https://www.visugpx.com">
  <metadata>
    <name>2018-05-22-46-cahors-sud</name>
    <desc><![CDATA[Randonnée de 10km et 350m de dénivelé positif. Petit circuit avec quelques bonnes montées, des petits sentiers bien sympathiques et un peu de hors pistes]]></desc>
  </metadata>
  <trk>
    <name><![CDATA[Tracé 22 mai 2018 14:02:30]]></name>
    <trkseg>
      <trkpt lat="44.41892" lon="1.43883">
        <ele>109.74468</ele>
        <time>2018-05-22T12:02:30Z</time>
      </trkpt>
      <trkpt lat="44.41892" lon="1.43883">
        <ele>109.74468</ele>
        <time>2018-05-22T12:02:37Z</time>
      </trkpt>
      <trkpt lat="44.41902" lon="1.43888">
        <ele>109.34448</ele>
        <time>2018-05-22T12:02:42Z</time>
      </trkpt>
      <trkpt lat="44.41899" lon="1.43897">
        <ele>109.44412</ele>
        <time>2018-05-22T12:02:47Z</time>
      </trkpt>
      <trkpt lat="44.41892" lon="1.43911">
        <ele>109.64356666667</ele>
        <time>2018-05-22T12:02:52Z</time>
      </trkpt>
      <trkpt lat="44.419" lon="1.43916">
        <ele>109.54338</ele>
        <time>2018-05-22T12:03:05Z</time>
      </trkpt>
      <trkpt lat="44.41908" lon="1.43919">
        <ele>109.44324666667</ele>
        <time>2018-05-22T12:03:14Z</time>
      </trkpt>
      <trkpt lat="44.41914" lon="1.43911">
        <ele>109.24355333333</ele>
        <time>2018-05-22T12:03:21Z</time>
      </trkpt>
      <trkpt lat="44.41921" lon="1.43904">
        <ele>108.84382666667</ele>
        <time>2018-05-22T12:03:29Z</time>
      </trkpt>
      <trkpt lat="44.41928" lon="1.439">
        <ele>108.34398666667</ele>
        <time>2018-05-22T12:03:35Z</time>
      </trkpt>
      <trkpt lat="44.41937" lon="1.43897">
        <ele>107.94412</ele>
        <time>2018-05-22T12:03:40Z</time>
      </trkpt>
      <trkpt lat="44.41945" lon="1.43891">
        <ele>106.64434666667</ele>
        <time>2018-05-22T12:03:51Z</time>
      </trkpt>
      <trkpt lat="44.41953" lon="1.43889">
        <ele>105.64445333333</ele>
        <time>2018-05-22T12:03:57Z</time>
      </trkpt>
      <trkpt lat="44.41961" lon="1.43887">
        <ele>104.94453333333</ele>
        <time>2018-05-22T12:04:03Z</time>
      </trkpt>
      <trkpt lat="44.41969" lon="1.43886">
        <ele>104.24455333333</ele>
        <time>2018-05-22T12:04:09Z</time>
      </trkpt>
      <trkpt lat="44.41977" lon="1.43886">
        <ele>103.64456</ele>
        <time>2018-05-22T12:04:15Z</time>
      </trkpt>
      <trkpt lat="44.41985" lon="1.43889">
        <ele>102.64445333333</ele>
        <time>2018-05-22T12:04:22Z</time>
      </trkpt>
      <trkpt lat="44.41993" lon="1.43889">
        <ele>101.14444666667</ele>
        <time>2018-05-22T12:04:29Z</time>
      </trkpt>
      <trkpt lat="44.42002" lon="1.43891">
        <ele>99.644373333333</ele>
        <time>2018-05-22T12:04:36Z</time>
      </trkpt>
      <trkpt lat="44.4201" lon="1.43891">
        <ele>98.644373333333</ele>
        <time>2018-05-22T12:04:42Z</time>
      </trkpt>
      <trkpt lat="44.42018" lon="1.43891">
        <ele>97.644366666667</ele>
        <time>2018-05-22T12:04:48Z</time>
      </trkpt>
      <trkpt lat="44.42026" lon="1.4389">
        <ele>96.444386666667</ele>
        <time>2018-05-22T12:04:54Z</time>
      </trkpt>
      <trkpt lat="44.42034" lon="1.43889">
        <ele>95.244426666667</ele>
        <time>2018-05-22T12:05:00Z</time>
      </trkpt>
      <trkpt lat="44.42043" lon="1.4389">
        <ele>93.84442</ele>
        <time>2018-05-22T12:05:07Z</time>
      </trkpt>
      <trkpt lat="44.42051" lon="1.43892">
        <ele>92.04434</ele>
        <time>2018-05-22T12:05:13Z</time>
      </trkpt>
      <trkpt lat="44.42059" lon="1.43893">
        <ele>89.844266666667</ele>
        <time>2018-05-22T12:05:19Z</time>
      </trkpt>
      <trkpt lat="44.42068" lon="1.43891">
        <ele>88.444346666667</ele>
        <time>2018-05-22T12:05:25Z</time>
      </trkpt>
      <trkpt lat="44.42076" lon="1.43891">
        <ele>87.144373333333</ele>
        <time>2018-05-22T12:05:31Z</time>
      </trkpt>
      <trkpt lat="44.42085" lon="1.43891">
        <ele>85.244373333333</ele>
        <time>2018-05-22T12:05:38Z</time>
      </trkpt>
      <trkpt lat="44.42093" lon="1.43891">
        <ele>84.244346666667</ele>
        <time>2018-05-22T12:05:44Z</time>
      </trkpt>
      <trkpt lat="44.42101" lon="1.43891">
        <ele>82.944366666667</ele>
        <time>2018-05-22T12:05:50Z</time>
      </trkpt>
      <trkpt lat="44.42109" lon="1.43894">
        <ele>81.54426</ele>
        <time>2018-05-22T12:06:00Z</time>
      </trkpt>
      <trkpt lat="44.42117" lon="1.43895">
        <ele>80.044206666667</ele>
        <time>2018-05-22T12:06:07Z</time>
      </trkpt>
      <trkpt lat="44.42126" lon="1.43895">
        <ele>78.64422</ele>
        <time>2018-05-22T12:06:14Z</time>
      </trkpt>
      <trkpt lat="44.42135" lon="1.43895">
        <ele>78.144213333333</ele>
        <time>2018-05-22T12:06:20Z</time>
      </trkpt>
      <trkpt lat="44.42143" lon="1.43896">
        <ele>77.344166666667</ele>
        <time>2018-05-22T12:06:26Z</time>
      </trkpt>
      <trkpt lat="44.42151" lon="1.43893">
        <ele>77.044286666667</ele>
        <time>2018-05-22T12:06:32Z</time>
      </trkpt>
      <trkpt lat="44.42156" lon="1.43884">
        <ele>75.544653333333</ele>
        <time>2018-05-22T12:06:43Z</time>
      </trkpt>
      <trkpt lat="44.42155" lon="1.43872">
        <ele>74.845106666667</ele>
        <time>2018-05-22T12:06:51Z</time>
      </trkpt>
      <trkpt lat="44.42155" lon="1.43861">
        <ele>74.345566666667</ele>
        <time>2018-05-22T12:06:58Z</time>
      </trkpt>
      <trkpt lat="44.42159" lon="1.4385">
        <ele>73.746</ele>
        <time>2018-05-22T12:07:05Z</time>
      </trkpt>
      <trkpt lat="44.4216" lon="1.43838">
        <ele>72.846486666667</ele>
        <time>2018-05-22T12:07:13Z</time>
      </trkpt>
      <trkpt lat="44.42159" lon="1.43827">
        <ele>72.546913333333</ele>
        <time>2018-05-22T12:07:19Z</time>
      </trkpt>
      <trkpt lat="44.42157" lon="1.43815">
        <ele>72.1474</ele>
        <time>2018-05-22T12:07:26Z</time>
      </trkpt>
      <trkpt lat="44.42157" lon="1.43803">
        <ele>71.647866666667</ele>
        <time>2018-05-22T12:07:33Z</time>
      </trkpt>
      <trkpt lat="44.42161" lon="1.43794">
        <ele>71.34824</ele>
        <time>2018-05-22T12:07:40Z</time>
      </trkpt>
      <trkpt lat="44.42165" lon="1.43783">
        <ele>71.048673333333</ele>
        <time>2018-05-22T12:07:47Z</time>
      </trkpt>
      <trkpt lat="44.42168" lon="1.43772">
        <ele>71.14914</ele>
        <time>2018-05-22T12:07:53Z</time>
      </trkpt>
      <trkpt lat="44.42161" lon="1.43767">
        <ele>70.949313333333</ele>
        <time>2018-05-22T12:08:00Z</time>
      </trkpt>
      <trkpt lat="44.42153" lon="1.43767">
        <ele>71.14932</ele>
        <time>2018-05-22T12:08:06Z</time>
      </trkpt>
      <trkpt lat="44.42145" lon="1.43767">
        <ele>71.049333333333</ele>
        <time>2018-05-22T12:08:13Z</time>
      </trkpt>
      <trkpt lat="44.42137" lon="1.43764">
        <ele>71.14946</ele>
        <time>2018-05-22T12:08:20Z</time>
      </trkpt>
      <trkpt lat="44.42129" lon="1.4376">
        <ele>71.449606666667</ele>
        <time>2018-05-22T12:08:26Z</time>
      </trkpt>
      <trkpt lat="44.4212" lon="1.43759">
        <ele>72.54966</ele>
        <time>2018-05-22T12:08:33Z</time>
      </trkpt>
      <trkpt lat="44.42112" lon="1.43758">
        <ele>73.149686666667</ele>
        <time>2018-05-22T12:08:38Z</time>
      </trkpt>
      <trkpt lat="44.42104" lon="1.43753">
        <ele>73.449873333333</ele>
        <time>2018-05-22T12:08:45Z</time>
      </trkpt>
      <trkpt lat="44.42098" lon="1.43744">
        <ele>73.750233333333</ele>
        <time>2018-05-22T12:08:53Z</time>
      </trkpt>
      <trkpt lat="44.42094" lon="1.43733">
        <ele>74.150673333333</ele>
        <time>2018-05-22T12:09:00Z</time>
      </trkpt>
      <trkpt lat="44.42091" lon="1.43723">
        <ele>74.751086666667</ele>
        <time>2018-05-22T12:09:06Z</time>
      </trkpt>
      <trkpt lat="44.42089" lon="1.43712">
        <ele>75.451526666667</ele>
        <time>2018-05-22T12:09:15Z</time>
      </trkpt>
      <trkpt lat="44.42089" lon="1.43701">
        <ele>75.651946666667</ele>
        <time>2018-05-22T12:09:20Z</time>
      </trkpt>
      <trkpt lat="44.42096" lon="1.43691">
        <ele>76.452373333333</ele>
        <time>2018-05-22T12:09:25Z</time>
      </trkpt>
      <trkpt lat="44.42099" lon="1.43685">
        <ele>76.552593333333</ele>
        <time>2018-05-22T12:09:29Z</time>
      </trkpt>
      <trkpt lat="44.42115" lon="1.43674">
        <ele>76.953026666667</ele>
        <time>2018-05-22T12:09:33Z</time>
      </trkpt>
      <trkpt lat="44.42108" lon="1.43666">
        <ele>77.35336</ele>
        <time>2018-05-22T12:09:37Z</time>
      </trkpt>
      <trkpt lat="44.42102" lon="1.43658">
        <ele>77.853686666667</ele>
        <time>2018-05-22T12:09:41Z</time>
      </trkpt>
      <trkpt lat="44.42096" lon="1.43649">
        <ele>78.05404</ele>
        <time>2018-05-22T12:09:46Z</time>
      </trkpt>
      <trkpt lat="44.42092" lon="1.43639">
        <ele>78.054433333333</ele>
        <time>2018-05-22T12:09:54Z</time>
      </trkpt>
      <trkpt lat="44.42093" lon="1.43628">
        <ele>78.454886666667</ele>
        <time>2018-05-22T12:10:02Z</time>
      </trkpt>
      <trkpt lat="44.42088" lon="1.43617">
        <ele>78.75532</ele>
        <time>2018-05-22T12:10:10Z</time>
      </trkpt>
      <trkpt lat="44.42089" lon="1.43606">
        <ele>79.155746666667</ele>
        <time>2018-05-22T12:10:17Z</time>
      </trkpt>
      <trkpt lat="44.42088" lon="1.43594">
        <ele>80.056246666667</ele>
        <time>2018-05-22T12:10:26Z</time>
      </trkpt>
      <trkpt lat="44.42087" lon="1.43583">
        <ele>80.5567</ele>
        <time>2018-05-22T12:10:34Z</time>
      </trkpt>
      <trkpt lat="44.42087" lon="1.43572">
        <ele>80.55714</ele>
        <time>2018-05-22T12:10:41Z</time>
      </trkpt>
      <trkpt lat="44.42089" lon="1.43561">
        <ele>81.15758</ele>
        <time>2018-05-22T12:10:49Z</time>
      </trkpt>
      <trkpt lat="44.42087" lon="1.43549">
        <ele>82.458026666667</ele>
        <time>2018-05-22T12:10:56Z</time>
      </trkpt>
      <trkpt lat="44.42088" lon="1.43539">
        <ele>83.258453333333</ele>
        <time>2018-05-22T12:11:03Z</time>
      </trkpt>
      <trkpt lat="44.42087" lon="1.43527">
        <ele>84.458933333333</ele>
        <time>2018-05-22T12:11:10Z</time>
      </trkpt>
      <trkpt lat="44.42088" lon="1.43516">
        <ele>84.95938</ele>
        <time>2018-05-22T12:11:16Z</time>
      </trkpt>
      <trkpt lat="44.42085" lon="1.43504">
        <ele>85.259853333333</ele>
        <time>2018-05-22T12:11:23Z</time>
      </trkpt>
      <trkpt lat="44.42079" lon="1.43494">
        <ele>85.660226666667</ele>
        <time>2018-05-22T12:11:31Z</time>
      </trkpt>
      <trkpt lat="44.42075" lon="1.43485">
        <ele>85.66062</ele>
        <time>2018-05-22T12:11:38Z</time>
      </trkpt>
      <trkpt lat="44.42069" lon="1.43477">
        <ele>84.860933333333</ele>
        <time>2018-05-22T12:11:45Z</time>
      </trkpt>
      <trkpt lat="44.42066" lon="1.43466">
        <ele>82.461373333333</ele>
        <time>2018-05-22T12:11:52Z</time>
      </trkpt>
      <trkpt lat="44.42062" lon="1.43454">
        <ele>80.961833333333</ele>
        <time>2018-05-22T12:12:01Z</time>
      </trkpt>
      <trkpt lat="44.42057" lon="1.43445">
        <ele>79.2622</ele>
        <time>2018-05-22T12:12:09Z</time>
      </trkpt>
      <trkpt lat="44.42054" lon="1.43434">
        <ele>78.862626666667</ele>
        <time>2018-05-22T12:12:16Z</time>
      </trkpt>
      <trkpt lat="44.42047" lon="1.43426">
        <ele>79.662946666667</ele>
        <time>2018-05-22T12:12:23Z</time>
      </trkpt>
      <trkpt lat="44.42042" lon="1.43417">
        <ele>80.563333333333</ele>
        <time>2018-05-22T12:12:30Z</time>
      </trkpt>
      <trkpt lat="44.42038" lon="1.43406">
        <ele>81.063773333333</ele>
        <time>2018-05-22T12:12:38Z</time>
      </trkpt>
      <trkpt lat="44.42035" lon="1.43395">
        <ele>81.26422</ele>
        <time>2018-05-22T12:12:47Z</time>
      </trkpt>
      <trkpt lat="44.42029" lon="1.43386">
        <ele>81.26456</ele>
        <time>2018-05-22T12:12:54Z</time>
      </trkpt>
      <trkpt lat="44.42025" lon="1.43376">
        <ele>81.664946666667</ele>
        <time>2018-05-22T12:13:01Z</time>
      </trkpt>
      <trkpt lat="44.4202" lon="1.43366">
        <ele>82.16536</ele>
        <time>2018-05-22T12:13:08Z</time>
      </trkpt>
      <trkpt lat="44.42014" lon="1.43357">
        <ele>82.665713333333</ele>
        <time>2018-05-22T12:13:15Z</time>
      </trkpt>
      <trkpt lat="44.42011" lon="1.43346">
        <ele>83.16618</ele>
        <time>2018-05-22T12:13:22Z</time>
      </trkpt>
      <trkpt lat="44.42008" lon="1.43335">
        <ele>83.066613333333</ele>
        <time>2018-05-22T12:13:30Z</time>
      </trkpt>
      <trkpt lat="44.42003" lon="1.43326">
        <ele>83.86698</ele>
        <time>2018-05-22T12:13:37Z</time>
      </trkpt>
      <trkpt lat="44.42" lon="1.43314">
        <ele>84.367433333333</ele>
        <time>2018-05-22T12:13:44Z</time>
      </trkpt>
      <trkpt lat="44.41997" lon="1.43303">
        <ele>85.767866666667</ele>
        <time>2018-05-22T12:13:51Z</time>
      </trkpt>
      <trkpt lat="44.41995" lon="1.43293">
        <ele>86.568293333333</ele>
        <time>2018-05-22T12:13:57Z</time>
      </trkpt>
      <trkpt lat="44.41995" lon="1.43281">
        <ele>87.368746666667</ele>
        <time>2018-05-22T12:14:04Z</time>
      </trkpt>
      <trkpt lat="44.41994" lon="1.4327">
        <ele>87.969213333333</ele>
        <time>2018-05-22T12:14:11Z</time>
      </trkpt>
      <trkpt lat="44.41991" lon="1.43259">
        <ele>88.469653333333</ele>
        <time>2018-05-22T12:14:18Z</time>
      </trkpt>
      <trkpt lat="44.41986" lon="1.43249">
        <ele>89.27006</ele>
        <time>2018-05-22T12:14:25Z</time>
      </trkpt>
      <trkpt lat="44.41981" lon="1.43239">
        <ele>90.370426666667</ele>
        <time>2018-05-22T12:14:32Z</time>
      </trkpt>
      <trkpt lat="44.41975" lon="1.43231">
        <ele>91.170773333333</ele>
        <time>2018-05-22T12:14:39Z</time>
      </trkpt>
      <trkpt lat="44.41968" lon="1.43224">
        <ele>92.571053333333</ele>
        <time>2018-05-22T12:14:46Z</time>
      </trkpt>
      <trkpt lat="44.41962" lon="1.43216">
        <ele>93.97136</ele>
        <time>2018-05-22T12:14:56Z</time>
      </trkpt>
      <trkpt lat="44.41954" lon="1.43212">
        <ele>94.371506666667</ele>
        <time>2018-05-22T12:15:03Z</time>
      </trkpt>
      <trkpt lat="44.41946" lon="1.43209">
        <ele>94.77166</ele>
        <time>2018-05-22T12:15:10Z</time>
      </trkpt>
      <trkpt lat="44.41939" lon="1.43203">
        <ele>95.471873333333</ele>
        <time>2018-05-22T12:15:18Z</time>
      </trkpt>
      <trkpt lat="44.41932" lon="1.43197">
        <ele>95.972106666667</ele>
        <time>2018-05-22T12:15:24Z</time>
      </trkpt>
      <trkpt lat="44.41924" lon="1.43193">
        <ele>96.372293333333</ele>
        <time>2018-05-22T12:15:31Z</time>
      </trkpt>
      <trkpt lat="44.41916" lon="1.43188">
        <ele>96.372493333333</ele>
        <time>2018-05-22T12:15:38Z</time>
      </trkpt>
      <trkpt lat="44.41909" lon="1.4318">
        <ele>96.772813333333</ele>
        <time>2018-05-22T12:15:45Z</time>
      </trkpt>
      <trkpt lat="44.41903" lon="1.43173">
        <ele>96.473066666667</ele>
        <time>2018-05-22T12:15:51Z</time>
      </trkpt>
      <trkpt lat="44.41896" lon="1.43169">
        <ele>96.773253333333</ele>
        <time>2018-05-22T12:15:57Z</time>
      </trkpt>
      <trkpt lat="44.4189" lon="1.43162">
        <ele>96.773526666667</ele>
        <time>2018-05-22T12:16:04Z</time>
      </trkpt>
      <trkpt lat="44.41883" lon="1.43154">
        <ele>97.273833333333</ele>
        <time>2018-05-22T12:16:12Z</time>
      </trkpt>
      <trkpt lat="44.41877" lon="1.43147">
        <ele>97.974133333333</ele>
        <time>2018-05-22T12:16:19Z</time>
      </trkpt>
      <trkpt lat="44.41871" lon="1.43139">
        <ele>98.77446</ele>
        <time>2018-05-22T12:16:27Z</time>
      </trkpt>
      <trkpt lat="44.41864" lon="1.43132">
        <ele>99.274706666667</ele>
        <time>2018-05-22T12:16:34Z</time>
      </trkpt>
      <trkpt lat="44.41859" lon="1.43125">
        <ele>99.175006666667</ele>
        <time>2018-05-22T12:16:41Z</time>
      </trkpt>
      <trkpt lat="44.41854" lon="1.43115">
        <ele>99.075386666667</ele>
        <time>2018-05-22T12:16:48Z</time>
      </trkpt>
      <trkpt lat="44.41848" lon="1.43108">
        <ele>99.3757</ele>
        <time>2018-05-22T12:16:56Z</time>
      </trkpt>
      <trkpt lat="44.41846" lon="1.43096">
        <ele>99.776146666667</ele>
        <time>2018-05-22T12:17:03Z</time>
      </trkpt>
      <trkpt lat="44.41839" lon="1.43088">
        <ele>99.976466666667</ele>
        <time>2018-05-22T12:17:11Z</time>
      </trkpt>
      <trkpt lat="44.41833" lon="1.43081">
        <ele>100.37677333333</ele>
        <time>2018-05-22T12:17:19Z</time>
      </trkpt>
      <trkpt lat="44.41827" lon="1.43073">
        <ele>101.5771</ele>
        <time>2018-05-22T12:17:28Z</time>
      </trkpt>
      <trkpt lat="44.41819" lon="1.43069">
        <ele>102.97724</ele>
        <time>2018-05-22T12:17:37Z</time>
      </trkpt>
      <trkpt lat="44.41814" lon="1.43059">
        <ele>104.37766</ele>
        <time>2018-05-22T12:17:48Z</time>
      </trkpt>
      <trkpt lat="44.41806" lon="1.43057">
        <ele>108.27770666667</ele>
        <time>2018-05-22T12:18:00Z</time>
      </trkpt>
      <trkpt lat="44.41797" lon="1.4306">
        <ele>112.57760666667</ele>
        <time>2018-05-22T12:18:10Z</time>
      </trkpt>
      <trkpt lat="44.41789" lon="1.4306">
        <ele>115.37762</ele>
        <time>2018-05-22T12:18:18Z</time>
      </trkpt>
      <trkpt lat="44.41781" lon="1.43058">
        <ele>116.97769333333</ele>
        <time>2018-05-22T12:18:23Z</time>
      </trkpt>
      <trkpt lat="44.41774" lon="1.43051">
        <ele>119.77794666667</ele>
        <time>2018-05-22T12:18:33Z</time>
      </trkpt>
      <trkpt lat="44.41768" lon="1.43043">
        <ele>123.0783</ele>
        <time>2018-05-22T12:18:45Z</time>
      </trkpt>
      <trkpt lat="44.4176" lon="1.43038">
        <ele>125.57849333333</ele>
        <time>2018-05-22T12:18:56Z</time>
      </trkpt>
      <trkpt lat="44.41752" lon="1.43032">
        <ele>129.27871333333</ele>
        <time>2018-05-22T12:19:11Z</time>
      </trkpt>
      <trkpt lat="44.41745" lon="1.43026">
        <ele>131.67896666667</ele>
        <time>2018-05-22T12:19:22Z</time>
      </trkpt>
      <trkpt lat="44.41738" lon="1.43019">
        <ele>132.77924666667</ele>
        <time>2018-05-22T12:19:30Z</time>
      </trkpt>
      <trkpt lat="44.41732" lon="1.43013">
        <ele>134.2795</ele>
        <time>2018-05-22T12:19:38Z</time>
      </trkpt>
      <trkpt lat="44.41725" lon="1.43005">
        <ele>135.07980666667</ele>
        <time>2018-05-22T12:19:48Z</time>
      </trkpt>
      <trkpt lat="44.41721" lon="1.42995">
        <ele>134.8802</ele>
        <time>2018-05-22T12:19:57Z</time>
      </trkpt>
      <trkpt lat="44.41718" lon="1.42984">
        <ele>134.98066</ele>
        <time>2018-05-22T12:20:10Z</time>
      </trkpt>
      <trkpt lat="44.41712" lon="1.42979">
        <ele>134.98083333333</ele>
        <time>2018-05-22T12:20:20Z</time>
      </trkpt>
      <trkpt lat="44.41703" lon="1.42977">
        <ele>135.38094</ele>
        <time>2018-05-22T12:20:27Z</time>
      </trkpt>
      <trkpt lat="44.41697" lon="1.42968">
        <ele>135.48129333333</ele>
        <time>2018-05-22T12:21:32Z</time>
      </trkpt>
      <trkpt lat="44.4169" lon="1.42964">
        <ele>136.48144666667</ele>
        <time>2018-05-22T12:23:26Z</time>
      </trkpt>
      <trkpt lat="44.41681" lon="1.42963">
        <ele>137.18149333333</ele>
        <time>2018-05-22T12:23:34Z</time>
      </trkpt>
      <trkpt lat="44.41673" lon="1.4296">
        <ele>136.18161333333</ele>
        <time>2018-05-22T12:23:43Z</time>
      </trkpt>
      <trkpt lat="44.41666" lon="1.42953">
        <ele>134.48188</ele>
        <time>2018-05-22T12:23:52Z</time>
      </trkpt>
      <trkpt lat="44.41658" lon="1.42948">
        <ele>132.68208</ele>
        <time>2018-05-22T12:24:01Z</time>
      </trkpt>
      <trkpt lat="44.4165" lon="1.42942">
        <ele>131.48233333333</ele>
        <time>2018-05-22T12:24:11Z</time>
      </trkpt>
      <trkpt lat="44.41643" lon="1.42937">
        <ele>130.58253333333</ele>
        <time>2018-05-22T12:24:20Z</time>
      </trkpt>
      <trkpt lat="44.41635" lon="1.42931">
        <ele>128.98276666667</ele>
        <time>2018-05-22T12:24:32Z</time>
      </trkpt>
      <trkpt lat="44.41628" lon="1.42925">
        <ele>128.98302</ele>
        <time>2018-05-22T12:24:41Z</time>
      </trkpt>
      <trkpt lat="44.41621" lon="1.42917">
        <ele>129.28332666667</ele>
        <time>2018-05-22T12:24:49Z</time>
      </trkpt>
      <trkpt lat="44.41614" lon="1.42911">
        <ele>129.48357333333</ele>
        <time>2018-05-22T12:24:56Z</time>
      </trkpt>
      <trkpt lat="44.41606" lon="1.42905">
        <ele>129.18381333333</ele>
        <time>2018-05-22T12:25:06Z</time>
      </trkpt>
      <trkpt lat="44.41598" lon="1.42901">
        <ele>127.58395333333</ele>
        <time>2018-05-22T12:25:15Z</time>
      </trkpt>
      <trkpt lat="44.4159" lon="1.42898">
        <ele>126.88406666667</ele>
        <time>2018-05-22T12:25:23Z</time>
      </trkpt>
      <trkpt lat="44.41582" lon="1.42899">
        <ele>124.98406</ele>
        <time>2018-05-22T12:25:31Z</time>
      </trkpt>
      <trkpt lat="44.41573" lon="1.429">
        <ele>125.884</ele>
        <time>2018-05-22T12:25:38Z</time>
      </trkpt>
      <trkpt lat="44.41565" lon="1.42899">
        <ele>124.98402666667</ele>
        <time>2018-05-22T12:25:45Z</time>
      </trkpt>
      <trkpt lat="44.41557" lon="1.42898">
        <ele>123.5841</ele>
        <time>2018-05-22T12:25:53Z</time>
      </trkpt>
      <trkpt lat="44.41548" lon="1.42897">
        <ele>123.38412666667</ele>
        <time>2018-05-22T12:26:00Z</time>
      </trkpt>
      <trkpt lat="44.4154" lon="1.42895">
        <ele>123.2842</ele>
        <time>2018-05-22T12:26:07Z</time>
      </trkpt>
      <trkpt lat="44.41531" lon="1.42893">
        <ele>122.0843</ele>
        <time>2018-05-22T12:26:16Z</time>
      </trkpt>
      <trkpt lat="44.41523" lon="1.4289">
        <ele>117.78439333333</ele>
        <time>2018-05-22T12:26:24Z</time>
      </trkpt>
      <trkpt lat="44.41515" lon="1.42887">
        <ele>115.58453333333</ele>
        <time>2018-05-22T12:26:32Z</time>
      </trkpt>
      <trkpt lat="44.41508" lon="1.4288">
        <ele>111.38480666667</ele>
        <time>2018-05-22T12:26:41Z</time>
      </trkpt>
      <trkpt lat="44.41501" lon="1.42875">
        <ele>109.48502</ele>
        <time>2018-05-22T12:26:48Z</time>
      </trkpt>
      <trkpt lat="44.41494" lon="1.42868">
        <ele>107.28528666667</ele>
        <time>2018-05-22T12:26:56Z</time>
      </trkpt>
      <trkpt lat="44.41486" lon="1.42862">
        <ele>105.38553333333</ele>
        <time>2018-05-22T12:27:05Z</time>
      </trkpt>
      <trkpt lat="44.41479" lon="1.42856">
        <ele>105.38578</ele>
        <time>2018-05-22T12:27:13Z</time>
      </trkpt>
      <trkpt lat="44.41471" lon="1.4285">
        <ele>105.98601333333</ele>
        <time>2018-05-22T12:27:22Z</time>
      </trkpt>
      <trkpt lat="44.41463" lon="1.42845">
        <ele>106.2862</ele>
        <time>2018-05-22T12:27:29Z</time>
      </trkpt>
      <trkpt lat="44.41455" lon="1.4284">
        <ele>105.88640666667</ele>
        <time>2018-05-22T12:27:37Z</time>
      </trkpt>
      <trkpt lat="44.41447" lon="1.42835">
        <ele>105.28662</ele>
        <time>2018-05-22T12:27:45Z</time>
      </trkpt>
      <trkpt lat="44.4144" lon="1.42831">
        <ele>104.58676</ele>
        <time>2018-05-22T12:27:52Z</time>
      </trkpt>
      <trkpt lat="44.41432" lon="1.42829">
        <ele>104.78685333333</ele>
        <time>2018-05-22T12:27:58Z</time>
      </trkpt>
      <trkpt lat="44.41425" lon="1.42826">
        <ele>105.38694666667</ele>
        <time>2018-05-22T12:28:04Z</time>
      </trkpt>
      <trkpt lat="44.41417" lon="1.42821">
        <ele>105.08718</ele>
        <time>2018-05-22T12:28:11Z</time>
      </trkpt>
      <trkpt lat="44.41413" lon="1.4281">
        <ele>101.9876</ele>
        <time>2018-05-22T12:28:18Z</time>
      </trkpt>
      <trkpt lat="44.41408" lon="1.428">
        <ele>100.18801333333</ele>
        <time>2018-05-22T12:28:26Z</time>
      </trkpt>
      <trkpt lat="44.41403" lon="1.42789">
        <ele>97.688426666667</ele>
        <time>2018-05-22T12:28:36Z</time>
      </trkpt>
      <trkpt lat="44.41396" lon="1.42783">
        <ele>93.0887</ele>
        <time>2018-05-22T12:30:30Z</time>
      </trkpt>
      <trkpt lat="44.41388" lon="1.42788">
        <ele>90.888486666667</ele>
        <time>2018-05-22T12:30:39Z</time>
      </trkpt>
      <trkpt lat="44.41381" lon="1.42796">
        <ele>90.98818</ele>
        <time>2018-05-22T12:30:47Z</time>
      </trkpt>
      <trkpt lat="44.41376" lon="1.42804">
        <ele>90.58784</ele>
        <time>2018-05-22T12:30:54Z</time>
      </trkpt>
      <trkpt lat="44.41371" lon="1.42815">
        <ele>92.3874</ele>
        <time>2018-05-22T12:31:02Z</time>
      </trkpt>
      <trkpt lat="44.41368" lon="1.42826">
        <ele>93.28698</ele>
        <time>2018-05-22T12:31:09Z</time>
      </trkpt>
      <trkpt lat="44.41366" lon="1.42836">
        <ele>93.586553333333</ele>
        <time>2018-05-22T12:31:16Z</time>
      </trkpt>
      <trkpt lat="44.41361" lon="1.42846">
        <ele>93.786146666667</ele>
        <time>2018-05-22T12:31:25Z</time>
      </trkpt>
      <trkpt lat="44.41356" lon="1.42857">
        <ele>94.28572</ele>
        <time>2018-05-22T12:31:34Z</time>
      </trkpt>
      <trkpt lat="44.41352" lon="1.42868">
        <ele>99.785286666667</ele>
        <time>2018-05-22T12:31:43Z</time>
      </trkpt>
      <trkpt lat="44.41344" lon="1.42874">
        <ele>99.785033333333</ele>
        <time>2018-05-22T12:31:52Z</time>
      </trkpt>
      <trkpt lat="44.41339" lon="1.42883">
        <ele>103.08469333333</ele>
        <time>2018-05-22T12:31:58Z</time>
      </trkpt>
      <trkpt lat="44.41332" lon="1.4289">
        <ele>106.08439333333</ele>
        <time>2018-05-22T12:32:06Z</time>
      </trkpt>
      <trkpt lat="44.41324" lon="1.42894">
        <ele>104.48425333333</ele>
        <time>2018-05-22T12:32:13Z</time>
      </trkpt>
      <trkpt lat="44.41316" lon="1.42895">
        <ele>103.68418666667</ele>
        <time>2018-05-22T12:32:19Z</time>
      </trkpt>
      <trkpt lat="44.41308" lon="1.42891">
        <ele>102.48435333333</ele>
        <time>2018-05-22T12:32:27Z</time>
      </trkpt>
      <trkpt lat="44.41304" lon="1.42882">
        <ele>100.88471333333</ele>
        <time>2018-05-22T12:32:33Z</time>
      </trkpt>
      <trkpt lat="44.41297" lon="1.42874">
        <ele>99.885033333333</ele>
        <time>2018-05-22T12:32:39Z</time>
      </trkpt>
      <trkpt lat="44.41294" lon="1.42864">
        <ele>96.585446666667</ele>
        <time>2018-05-22T12:32:46Z</time>
      </trkpt>
      <trkpt lat="44.41291" lon="1.42852">
        <ele>93.085906666667</ele>
        <time>2018-05-22T12:32:55Z</time>
      </trkpt>
      <trkpt lat="44.41288" lon="1.42842">
        <ele>91.286313333333</ele>
        <time>2018-05-22T12:33:04Z</time>
      </trkpt>
      <trkpt lat="44.41284" lon="1.42832">
        <ele>90.98674</ele>
        <time>2018-05-22T12:33:13Z</time>
      </trkpt>
      <trkpt lat="44.41282" lon="1.4282">
        <ele>89.587206666667</ele>
        <time>2018-05-22T12:33:24Z</time>
      </trkpt>
      <trkpt lat="44.41279" lon="1.42808">
        <ele>88.48768</ele>
        <time>2018-05-22T12:33:33Z</time>
      </trkpt>
      <trkpt lat="44.41275" lon="1.42798">
        <ele>87.188073333333</ele>
        <time>2018-05-22T12:33:42Z</time>
      </trkpt>
      <trkpt lat="44.41269" lon="1.4279">
        <ele>86.288413333333</ele>
        <time>2018-05-22T12:33:55Z</time>
      </trkpt>
      <trkpt lat="44.41262" lon="1.42786">
        <ele>85.888566666667</ele>
        <time>2018-05-22T12:34:02Z</time>
      </trkpt>
      <trkpt lat="44.41257" lon="1.42777">
        <ele>87.18894</ele>
        <time>2018-05-22T12:34:10Z</time>
      </trkpt>
      <trkpt lat="44.41253" lon="1.42766">
        <ele>89.289373333333</ele>
        <time>2018-05-22T12:34:18Z</time>
      </trkpt>
      <trkpt lat="44.41249" lon="1.42756">
        <ele>90.489766666667</ele>
        <time>2018-05-22T12:34:25Z</time>
      </trkpt>
      <trkpt lat="44.41247" lon="1.42745">
        <ele>89.790186666667</ele>
        <time>2018-05-22T12:34:32Z</time>
      </trkpt>
      <trkpt lat="44.41246" lon="1.42735">
        <ele>89.59062</ele>
        <time>2018-05-22T12:34:39Z</time>
      </trkpt>
      <trkpt lat="44.41246" lon="1.42723">
        <ele>89.09108</ele>
        <time>2018-05-22T12:34:46Z</time>
      </trkpt>
      <trkpt lat="44.41244" lon="1.42712">
        <ele>90.091526666667</ele>
        <time>2018-05-22T12:34:54Z</time>
      </trkpt>
      <trkpt lat="44.41243" lon="1.42701">
        <ele>91.59198</ele>
        <time>2018-05-22T12:35:01Z</time>
      </trkpt>
      <trkpt lat="44.41241" lon="1.42689">
        <ele>92.792446666667</ele>
        <time>2018-05-22T12:35:08Z</time>
      </trkpt>
      <trkpt lat="44.41241" lon="1.42678">
        <ele>94.8929</ele>
        <time>2018-05-22T12:35:16Z</time>
      </trkpt>
      <trkpt lat="44.41236" lon="1.42668">
        <ele>95.693286666667</ele>
        <time>2018-05-22T12:35:23Z</time>
      </trkpt>
      <trkpt lat="44.41229" lon="1.42663">
        <ele>94.2935</ele>
        <time>2018-05-22T12:35:31Z</time>
      </trkpt>
      <trkpt lat="44.41221" lon="1.42664">
        <ele>93.093433333333</ele>
        <time>2018-05-22T12:35:38Z</time>
      </trkpt>
      <trkpt lat="44.41213" lon="1.42667">
        <ele>91.49334</ele>
        <time>2018-05-22T12:35:45Z</time>
      </trkpt>
      <trkpt lat="44.41204" lon="1.42668">
        <ele>92.093286666667</ele>
        <time>2018-05-22T12:35:52Z</time>
      </trkpt>
      <trkpt lat="44.41196" lon="1.4267">
        <ele>93.093206666667</ele>
        <time>2018-05-22T12:35:59Z</time>
      </trkpt>
      <trkpt lat="44.41187" lon="1.42668">
        <ele>91.093286666667</ele>
        <time>2018-05-22T12:36:06Z</time>
      </trkpt>
      <trkpt lat="44.41179" lon="1.42664">
        <ele>90.593453333333</ele>
        <time>2018-05-22T12:36:13Z</time>
      </trkpt>
      <trkpt lat="44.41171" lon="1.42661">
        <ele>91.093573333333</ele>
        <time>2018-05-22T12:36:20Z</time>
      </trkpt>
      <trkpt lat="44.41163" lon="1.42659">
        <ele>91.89364</ele>
        <time>2018-05-22T12:36:26Z</time>
      </trkpt>
      <trkpt lat="44.41163" lon="1.42672">
        <ele>94.69314</ele>
        <time>2018-05-22T12:36:40Z</time>
      </trkpt>
      <trkpt lat="44.41169" lon="1.4268">
        <ele>95.89282</ele>
        <time>2018-05-22T12:36:47Z</time>
      </trkpt>
      <trkpt lat="44.41174" lon="1.4269">
        <ele>95.492413333333</ele>
        <time>2018-05-22T12:36:56Z</time>
      </trkpt>
      <trkpt lat="44.41179" lon="1.42699">
        <ele>95.49204</ele>
        <time>2018-05-22T12:37:03Z</time>
      </trkpt>
      <trkpt lat="44.41185" lon="1.42706">
        <ele>97.291753333333</ele>
        <time>2018-05-22T12:37:09Z</time>
      </trkpt>
      <trkpt lat="44.41191" lon="1.42715">
        <ele>97.59142</ele>
        <time>2018-05-22T12:37:16Z</time>
      </trkpt>
      <trkpt lat="44.41195" lon="1.42724">
        <ele>96.891053333333</ele>
        <time>2018-05-22T12:37:23Z</time>
      </trkpt>
      <trkpt lat="44.41201" lon="1.42732">
        <ele>96.590733333333</ele>
        <time>2018-05-22T12:37:30Z</time>
      </trkpt>
      <trkpt lat="44.41207" lon="1.4274">
        <ele>95.6904</ele>
        <time>2018-05-22T12:37:37Z</time>
      </trkpt>
      <trkpt lat="44.41211" lon="1.4275">
        <ele>93.989993333333</ele>
        <time>2018-05-22T12:37:44Z</time>
      </trkpt>
      <trkpt lat="44.41214" lon="1.42762">
        <ele>93.789533333333</ele>
        <time>2018-05-22T12:37:51Z</time>
      </trkpt>
      <trkpt lat="44.41214" lon="1.42774">
        <ele>92.589033333333</ele>
        <time>2018-05-22T12:37:59Z</time>
      </trkpt>
      <trkpt lat="44.41213" lon="1.42785">
        <ele>88.388586666667</ele>
        <time>2018-05-22T12:38:06Z</time>
      </trkpt>
      <trkpt lat="44.41212" lon="1.42798">
        <ele>86.688093333333</ele>
        <time>2018-05-22T12:38:15Z</time>
      </trkpt>
      <trkpt lat="44.4121" lon="1.42809">
        <ele>84.387646666667</ele>
        <time>2018-05-22T12:38:23Z</time>
      </trkpt>
      <trkpt lat="44.41206" lon="1.42819">
        <ele>82.687253333333</ele>
        <time>2018-05-22T12:38:29Z</time>
      </trkpt>
      <trkpt lat="44.412" lon="1.42828">
        <ele>82.086893333333</ele>
        <time>2018-05-22T12:38:35Z</time>
      </trkpt>
      <trkpt lat="44.41195" lon="1.42838">
        <ele>83.086466666667</ele>
        <time>2018-05-22T12:38:42Z</time>
      </trkpt>
      <trkpt lat="44.41192" lon="1.4285">
        <ele>84.786006666667</ele>
        <time>2018-05-22T12:38:50Z</time>
      </trkpt>
      <trkpt lat="44.41192" lon="1.42862">
        <ele>88.085506666667</ele>
        <time>2018-05-22T12:39:00Z</time>
      </trkpt>
      <trkpt lat="44.41194" lon="1.42873">
        <ele>88.685073333333</ele>
        <time>2018-05-22T12:39:28Z</time>
      </trkpt>
      <trkpt lat="44.41197" lon="1.42885">
        <ele>89.384613333333</ele>
        <time>2018-05-22T12:39:35Z</time>
      </trkpt>
      <trkpt lat="44.41197" lon="1.42896">
        <ele>89.98418</ele>
        <time>2018-05-22T12:39:41Z</time>
      </trkpt>
      <trkpt lat="44.41201" lon="1.42905">
        <ele>91.583793333333</ele>
        <time>2018-05-22T12:39:47Z</time>
      </trkpt>
      <trkpt lat="44.41205" lon="1.42915">
        <ele>92.483393333333</ele>
        <time>2018-05-22T12:39:53Z</time>
      </trkpt>
      <trkpt lat="44.41208" lon="1.42926">
        <ele>92.782973333333</ele>
        <time>2018-05-22T12:39:59Z</time>
      </trkpt>
      <trkpt lat="44.41211" lon="1.42937">
        <ele>94.48254</ele>
        <time>2018-05-22T12:40:05Z</time>
      </trkpt>
      <trkpt lat="44.41215" lon="1.42947">
        <ele>95.482106666667</ele>
        <time>2018-05-22T12:40:12Z</time>
      </trkpt>
      <trkpt lat="44.41215" lon="1.42959">
        <ele>92.781633333333</ele>
        <time>2018-05-22T12:40:21Z</time>
      </trkpt>
      <trkpt lat="44.41218" lon="1.42971">
        <ele>91.981173333333</ele>
        <time>2018-05-22T12:40:29Z</time>
      </trkpt>
      <trkpt lat="44.41221" lon="1.42981">
        <ele>89.080773333333</ele>
        <time>2018-05-22T12:40:48Z</time>
      </trkpt>
      <trkpt lat="44.41215" lon="1.4299">
        <ele>93.3804</ele>
        <time>2018-05-22T12:41:15Z</time>
      </trkpt>
      <trkpt lat="44.41213" lon="1.43001">
        <ele>101.17998</ele>
        <time>2018-05-22T12:41:31Z</time>
      </trkpt>
      <trkpt lat="44.41205" lon="1.43005">
        <ele>102.7798</ele>
        <time>2018-05-22T12:41:40Z</time>
      </trkpt>
      <trkpt lat="44.41198" lon="1.43013">
        <ele>106.07947333333</ele>
        <time>2018-05-22T12:42:00Z</time>
      </trkpt>
      <trkpt lat="44.41195" lon="1.43025">
        <ele>106.879</ele>
        <time>2018-05-22T12:42:16Z</time>
      </trkpt>
      <trkpt lat="44.41201" lon="1.43035">
        <ele>105.67861333333</ele>
        <time>2018-05-22T12:42:27Z</time>
      </trkpt>
      <trkpt lat="44.41202" lon="1.43046">
        <ele>104.27814666667</ele>
        <time>2018-05-22T12:42:38Z</time>
      </trkpt>
      <trkpt lat="44.41203" lon="1.43059">
        <ele>105.47766</ele>
        <time>2018-05-22T12:42:51Z</time>
      </trkpt>
      <trkpt lat="44.41199" lon="1.43068">
        <ele>106.87727333333</ele>
        <time>2018-05-22T12:42:59Z</time>
      </trkpt>
      <trkpt lat="44.41201" lon="1.4308">
        <ele>106.07681333333</ele>
        <time>2018-05-22T12:43:07Z</time>
      </trkpt>
      <trkpt lat="44.41201" lon="1.43092">
        <ele>106.27632</ele>
        <time>2018-05-22T12:43:18Z</time>
      </trkpt>
      <trkpt lat="44.412" lon="1.43103">
        <ele>105.17587333333</ele>
        <time>2018-05-22T12:43:27Z</time>
      </trkpt>
      <trkpt lat="44.41201" lon="1.43115">
        <ele>104.97538666667</ele>
        <time>2018-05-22T12:43:39Z</time>
      </trkpt>
      <trkpt lat="44.41201" lon="1.43128">
        <ele>110.07489333333</ele>
        <time>2018-05-22T12:43:54Z</time>
      </trkpt>
      <trkpt lat="44.41196" lon="1.43138">
        <ele>114.57447333333</ele>
        <time>2018-05-22T12:44:13Z</time>
      </trkpt>
      <trkpt lat="44.41187" lon="1.4314">
        <ele>114.87439333333</ele>
        <time>2018-05-22T12:44:27Z</time>
      </trkpt>
      <trkpt lat="44.41183" lon="1.4313">
        <ele>113.17480666667</ele>
        <time>2018-05-22T12:44:50Z</time>
      </trkpt>
      <trkpt lat="44.41176" lon="1.43126">
        <ele>110.67498</ele>
        <time>2018-05-22T12:44:55Z</time>
      </trkpt>
      <trkpt lat="44.41168" lon="1.43119">
        <ele>110.07522666667</ele>
        <time>2018-05-22T12:45:13Z</time>
      </trkpt>
      <trkpt lat="44.41161" lon="1.43126">
        <ele>115.37496666667</ele>
        <time>2018-05-22T12:45:21Z</time>
      </trkpt>
      <trkpt lat="44.41161" lon="1.43138">
        <ele>123.87448</ele>
        <time>2018-05-22T12:45:36Z</time>
      </trkpt>
      <trkpt lat="44.41162" lon="1.4315">
        <ele>129.574</ele>
        <time>2018-05-22T12:45:51Z</time>
      </trkpt>
      <trkpt lat="44.41158" lon="1.43161">
        <ele>129.27356</ele>
        <time>2018-05-22T12:46:05Z</time>
      </trkpt>
      <trkpt lat="44.41153" lon="1.43168">
        <ele>130.5733</ele>
        <time>2018-05-22T12:46:28Z</time>
      </trkpt>
      <trkpt lat="44.41143" lon="1.43169">
        <ele>126.97324666667</ele>
        <time>2018-05-22T12:46:32Z</time>
      </trkpt>
      <trkpt lat="44.41137" lon="1.43176">
        <ele>136.17295333333</ele>
        <time>2018-05-22T12:47:05Z</time>
      </trkpt>
      <trkpt lat="44.41135" lon="1.43188">
        <ele>138.77246666667</ele>
        <time>2018-05-22T12:47:17Z</time>
      </trkpt>
      <trkpt lat="44.41137" lon="1.432">
        <ele>140.37198666667</ele>
        <time>2018-05-22T12:47:29Z</time>
      </trkpt>
      <trkpt lat="44.41131" lon="1.4321">
        <ele>140.4716</ele>
        <time>2018-05-22T12:47:42Z</time>
      </trkpt>
      <trkpt lat="44.41123" lon="1.43215">
        <ele>142.67142</ele>
        <time>2018-05-22T12:47:55Z</time>
      </trkpt>
      <trkpt lat="44.41115" lon="1.43217">
        <ele>144.27134</ele>
        <time>2018-05-22T12:48:11Z</time>
      </trkpt>
      <trkpt lat="44.41108" lon="1.43224">
        <ele>147.17106</ele>
        <time>2018-05-22T12:48:25Z</time>
      </trkpt>
      <trkpt lat="44.41107" lon="1.43236">
        <ele>147.87058</ele>
        <time>2018-05-22T12:48:39Z</time>
      </trkpt>
      <trkpt lat="44.41105" lon="1.43247">
        <ele>147.07012</ele>
        <time>2018-05-22T12:48:49Z</time>
      </trkpt>
      <trkpt lat="44.41103" lon="1.43259">
        <ele>148.26963333333</ele>
        <time>2018-05-22T12:48:59Z</time>
      </trkpt>
      <trkpt lat="44.41104" lon="1.43272">
        <ele>148.36914</ele>
        <time>2018-05-22T12:49:10Z</time>
      </trkpt>
      <trkpt lat="44.41102" lon="1.43278">
        <ele>146.36888</ele>
        <time>2018-05-22T12:52:20Z</time>
      </trkpt>
      <trkpt lat="44.41102" lon="1.4329">
        <ele>151.6684</ele>
        <time>2018-05-22T12:52:45Z</time>
      </trkpt>
      <trkpt lat="44.41103" lon="1.43302">
        <ele>149.36791333333</ele>
        <time>2018-05-22T12:53:00Z</time>
      </trkpt>
      <trkpt lat="44.41103" lon="1.43314">
        <ele>146.96746</ele>
        <time>2018-05-22T12:53:10Z</time>
      </trkpt>
      <trkpt lat="44.41103" lon="1.43326">
        <ele>146.16696</ele>
        <time>2018-05-22T12:53:19Z</time>
      </trkpt>
      <trkpt lat="44.41105" lon="1.43337">
        <ele>143.86650666667</ele>
        <time>2018-05-22T12:53:30Z</time>
      </trkpt>
      <trkpt lat="44.41106" lon="1.4335">
        <ele>143.86602</ele>
        <time>2018-05-22T12:53:42Z</time>
      </trkpt>
      <trkpt lat="44.41107" lon="1.43362">
        <ele>144.36552666667</ele>
        <time>2018-05-22T12:53:54Z</time>
      </trkpt>
      <trkpt lat="44.41109" lon="1.43373">
        <ele>144.06507333333</ele>
        <time>2018-05-22T12:54:08Z</time>
      </trkpt>
      <trkpt lat="44.41112" lon="1.43385">
        <ele>141.9646</ele>
        <time>2018-05-22T12:54:21Z</time>
      </trkpt>
      <trkpt lat="44.41111" lon="1.43397">
        <ele>140.06412</ele>
        <time>2018-05-22T12:54:37Z</time>
      </trkpt>
      <trkpt lat="44.41107" lon="1.43408">
        <ele>135.56368666667</ele>
        <time>2018-05-22T12:54:54Z</time>
      </trkpt>
      <trkpt lat="44.41103" lon="1.43418">
        <ele>133.46328666667</ele>
        <time>2018-05-22T12:55:06Z</time>
      </trkpt>
      <trkpt lat="44.41097" lon="1.43427">
        <ele>131.06292666667</ele>
        <time>2018-05-22T12:55:17Z</time>
      </trkpt>
      <trkpt lat="44.4109" lon="1.43434">
        <ele>127.76264</ele>
        <time>2018-05-22T12:55:27Z</time>
      </trkpt>
      <trkpt lat="44.41086" lon="1.43442">
        <ele>123.66231333333</ele>
        <time>2018-05-22T12:55:49Z</time>
      </trkpt>
      <trkpt lat="44.41085" lon="1.43451">
        <ele>125.86194666667</ele>
        <time>2018-05-22T12:56:42Z</time>
      </trkpt>
      <trkpt lat="44.41088" lon="1.43463">
        <ele>126.16149333333</ele>
        <time>2018-05-22T12:56:53Z</time>
      </trkpt>
      <trkpt lat="44.41084" lon="1.43473">
        <ele>118.96107333333</ele>
        <time>2018-05-22T12:57:10Z</time>
      </trkpt>
      <trkpt lat="44.41075" lon="1.43474">
        <ele>117.76102666667</ele>
        <time>2018-05-22T12:57:17Z</time>
      </trkpt>
      <trkpt lat="44.41067" lon="1.43477">
        <ele>116.66092</ele>
        <time>2018-05-22T12:57:24Z</time>
      </trkpt>
      <trkpt lat="44.41059" lon="1.43481">
        <ele>115.16075333333</ele>
        <time>2018-05-22T12:57:31Z</time>
      </trkpt>
      <trkpt lat="44.41051" lon="1.43484">
        <ele>113.66062666667</ele>
        <time>2018-05-22T12:57:39Z</time>
      </trkpt>
      <trkpt lat="44.41044" lon="1.43489">
        <ele>113.46044</ele>
        <time>2018-05-22T12:57:47Z</time>
      </trkpt>
      <trkpt lat="44.41035" lon="1.43494">
        <ele>112.66024</ele>
        <time>2018-05-22T12:57:54Z</time>
      </trkpt>
      <trkpt lat="44.41027" lon="1.43498">
        <ele>112.3601</ele>
        <time>2018-05-22T12:58:02Z</time>
      </trkpt>
      <trkpt lat="44.41019" lon="1.435">
        <ele>111.75999333333</ele>
        <time>2018-05-22T12:58:10Z</time>
      </trkpt>
      <trkpt lat="44.41011" lon="1.43502">
        <ele>112.05990666667</ele>
        <time>2018-05-22T12:58:18Z</time>
      </trkpt>
      <trkpt lat="44.41004" lon="1.4351">
        <ele>111.8596</ele>
        <time>2018-05-22T12:58:28Z</time>
      </trkpt>
      <trkpt lat="44.40997" lon="1.43517">
        <ele>109.75930666667</ele>
        <time>2018-05-22T12:58:41Z</time>
      </trkpt>
      <trkpt lat="44.40989" lon="1.43521">
        <ele>107.85914666667</ele>
        <time>2018-05-22T12:58:52Z</time>
      </trkpt>
      <trkpt lat="44.40981" lon="1.43524">
        <ele>107.45903333333</ele>
        <time>2018-05-22T12:59:04Z</time>
      </trkpt>
      <trkpt lat="44.40972" lon="1.43523">
        <ele>106.35908</ele>
        <time>2018-05-22T12:59:17Z</time>
      </trkpt>
      <trkpt lat="44.40963" lon="1.43519">
        <ele>105.95922666667</ele>
        <time>2018-05-22T12:59:32Z</time>
      </trkpt>
      <trkpt lat="44.40955" lon="1.43523">
        <ele>107.25909333333</ele>
        <time>2018-05-22T12:59:48Z</time>
      </trkpt>
      <trkpt lat="44.40958" lon="1.43534">
        <ele>111.95865333333</ele>
        <time>2018-05-22T13:00:08Z</time>
      </trkpt>
      <trkpt lat="44.40961" lon="1.43545">
        <ele>115.65819333333</ele>
        <time>2018-05-22T13:00:22Z</time>
      </trkpt>
      <trkpt lat="44.40969" lon="1.43555">
        <ele>108.55780666667</ele>
        <time>2018-05-22T13:00:27Z</time>
      </trkpt>
      <trkpt lat="44.40971" lon="1.43567">
        <ele>99.957333333333</ele>
        <time>2018-05-22T13:00:35Z</time>
      </trkpt>
      <trkpt lat="44.40974" lon="1.43578">
        <ele>97.05688</ele>
        <time>2018-05-22T13:00:47Z</time>
      </trkpt>
      <trkpt lat="44.40973" lon="1.4359">
        <ele>93.256393333333</ele>
        <time>2018-05-22T13:00:55Z</time>
      </trkpt>
      <trkpt lat="44.40973" lon="1.43602">
        <ele>92.155926666667</ele>
        <time>2018-05-22T13:01:02Z</time>
      </trkpt>
      <trkpt lat="44.40972" lon="1.43613">
        <ele>92.65548</ele>
        <time>2018-05-22T13:01:07Z</time>
      </trkpt>
      <trkpt lat="44.40971" lon="1.43624">
        <ele>92.955026666667</ele>
        <time>2018-05-22T13:01:13Z</time>
      </trkpt>
      <trkpt lat="44.40965" lon="1.43634">
        <ele>91.554626666667</ele>
        <time>2018-05-22T13:01:22Z</time>
      </trkpt>
      <trkpt lat="44.40959" lon="1.43641">
        <ele>88.95438</ele>
        <time>2018-05-22T13:01:29Z</time>
      </trkpt>
      <trkpt lat="44.40952" lon="1.43649">
        <ele>89.354033333333</ele>
        <time>2018-05-22T13:01:36Z</time>
      </trkpt>
      <trkpt lat="44.40946" lon="1.43658">
        <ele>89.853686666667</ele>
        <time>2018-05-22T13:01:43Z</time>
      </trkpt>
      <trkpt lat="44.4094" lon="1.43666">
        <ele>86.953366666667</ele>
        <time>2018-05-22T13:01:51Z</time>
      </trkpt>
      <trkpt lat="44.40933" lon="1.43674">
        <ele>86.15304</ele>
        <time>2018-05-22T13:02:00Z</time>
      </trkpt>
      <trkpt lat="44.4093" lon="1.43686">
        <ele>85.35258</ele>
        <time>2018-05-22T13:02:10Z</time>
      </trkpt>
      <trkpt lat="44.40927" lon="1.43696">
        <ele>90.452153333333</ele>
        <time>2018-05-22T13:02:17Z</time>
      </trkpt>
      <trkpt lat="44.40921" lon="1.43704">
        <ele>96.351853333333</ele>
        <time>2018-05-22T13:02:22Z</time>
      </trkpt>
      <trkpt lat="44.40918" lon="1.43714">
        <ele>95.951426666667</ele>
        <time>2018-05-22T13:02:31Z</time>
      </trkpt>
      <trkpt lat="44.40911" lon="1.43722">
        <ele>94.751133333333</ele>
        <time>2018-05-22T13:02:38Z</time>
      </trkpt>
      <trkpt lat="44.40905" lon="1.43729">
        <ele>94.65086</ele>
        <time>2018-05-22T13:02:45Z</time>
      </trkpt>
      <trkpt lat="44.40897" lon="1.43735">
        <ele>94.6506</ele>
        <time>2018-05-22T13:02:53Z</time>
      </trkpt>
      <trkpt lat="44.40892" lon="1.43745">
        <ele>92.650213333333</ele>
        <time>2018-05-22T13:03:01Z</time>
      </trkpt>
      <trkpt lat="44.40885" lon="1.43752">
        <ele>91.94994</ele>
        <time>2018-05-22T13:03:09Z</time>
      </trkpt>
      <trkpt lat="44.40877" lon="1.43758">
        <ele>92.94968</ele>
        <time>2018-05-22T13:03:16Z</time>
      </trkpt>
      <trkpt lat="44.4087" lon="1.43765">
        <ele>94.5494</ele>
        <time>2018-05-22T13:03:23Z</time>
      </trkpt>
      <trkpt lat="44.40863" lon="1.43772">
        <ele>94.849106666667</ele>
        <time>2018-05-22T13:03:30Z</time>
      </trkpt>
      <trkpt lat="44.40856" lon="1.43778">
        <ele>95.348866666667</ele>
        <time>2018-05-22T13:03:37Z</time>
      </trkpt>
      <trkpt lat="44.40847" lon="1.4378">
        <ele>86.948793333333</ele>
        <time>2018-05-22T13:03:49Z</time>
      </trkpt>
      <trkpt lat="44.40843" lon="1.43791">
        <ele>77.54836</ele>
        <time>2018-05-22T13:04:00Z</time>
      </trkpt>
      <trkpt lat="44.40838" lon="1.438">
        <ele>78.948006666667</ele>
        <time>2018-05-22T13:04:08Z</time>
      </trkpt>
      <trkpt lat="44.4083" lon="1.43803">
        <ele>81.647866666667</ele>
        <time>2018-05-22T13:04:15Z</time>
      </trkpt>
      <trkpt lat="44.40822" lon="1.43807">
        <ele>82.347726666667</ele>
        <time>2018-05-22T13:04:21Z</time>
      </trkpt>
      <trkpt lat="44.40814" lon="1.43808">
        <ele>86.347673333333</ele>
        <time>2018-05-22T13:04:28Z</time>
      </trkpt>
      <trkpt lat="44.40806" lon="1.43809">
        <ele>89.147646666667</ele>
        <time>2018-05-22T13:04:34Z</time>
      </trkpt>
      <trkpt lat="44.40798" lon="1.43809">
        <ele>91.147653333333</ele>
        <time>2018-05-22T13:04:40Z</time>
      </trkpt>
      <trkpt lat="44.4079" lon="1.43809">
        <ele>93.74764</ele>
        <time>2018-05-22T13:04:48Z</time>
      </trkpt>
      <trkpt lat="44.40782" lon="1.43813">
        <ele>95.64748</ele>
        <time>2018-05-22T13:04:55Z</time>
      </trkpt>
      <trkpt lat="44.40774" lon="1.43819">
        <ele>94.347246666667</ele>
        <time>2018-05-22T13:05:03Z</time>
      </trkpt>
      <trkpt lat="44.40768" lon="1.43826">
        <ele>94.546946666667</ele>
        <time>2018-05-22T13:05:11Z</time>
      </trkpt>
      <trkpt lat="44.40761" lon="1.43834">
        <ele>94.246653333333</ele>
        <time>2018-05-22T13:05:19Z</time>
      </trkpt>
      <trkpt lat="44.40754" lon="1.43839">
        <ele>93.346433333333</ele>
        <time>2018-05-22T13:05:26Z</time>
      </trkpt>
      <trkpt lat="44.40747" lon="1.43843">
        <ele>90.946286666667</ele>
        <time>2018-05-22T13:05:32Z</time>
      </trkpt>
      <trkpt lat="44.4074" lon="1.4385">
        <ele>91.44602</ele>
        <time>2018-05-22T13:05:38Z</time>
      </trkpt>
      <trkpt lat="44.40733" lon="1.43856">
        <ele>92.24576</ele>
        <time>2018-05-22T13:05:45Z</time>
      </trkpt>
      <trkpt lat="44.40726" lon="1.43863">
        <ele>92.5455</ele>
        <time>2018-05-22T13:05:51Z</time>
      </trkpt>
      <trkpt lat="44.4072" lon="1.43871">
        <ele>92.745146666667</ele>
        <time>2018-05-22T13:05:59Z</time>
      </trkpt>
      <trkpt lat="44.40713" lon="1.43878">
        <ele>91.0449</ele>
        <time>2018-05-22T13:09:23Z</time>
      </trkpt>
      <trkpt lat="44.40704" lon="1.43879">
        <ele>93.044833333333</ele>
        <time>2018-05-22T13:09:29Z</time>
      </trkpt>
      <trkpt lat="44.40696" lon="1.43882">
        <ele>92.444713333333</ele>
        <time>2018-05-22T13:09:40Z</time>
      </trkpt>
      <trkpt lat="44.40688" lon="1.43885">
        <ele>90.14462</ele>
        <time>2018-05-22T13:09:48Z</time>
      </trkpt>
      <trkpt lat="44.4068" lon="1.43889">
        <ele>92.744446666667</ele>
        <time>2018-05-22T13:09:59Z</time>
      </trkpt>
      <trkpt lat="44.40672" lon="1.43893">
        <ele>89.844266666667</ele>
        <time>2018-05-22T13:10:10Z</time>
      </trkpt>
      <trkpt lat="44.40665" lon="1.43901">
        <ele>89.743973333333</ele>
        <time>2018-05-22T13:10:18Z</time>
      </trkpt>
      <trkpt lat="44.40657" lon="1.43906">
        <ele>89.943766666667</ele>
        <time>2018-05-22T13:10:25Z</time>
      </trkpt>
      <trkpt lat="44.4065" lon="1.43911">
        <ele>92.343553333333</ele>
        <time>2018-05-22T13:10:34Z</time>
      </trkpt>
      <trkpt lat="44.40641" lon="1.43915">
        <ele>95.243406666667</ele>
        <time>2018-05-22T13:10:43Z</time>
      </trkpt>
      <trkpt lat="44.40634" lon="1.43922">
        <ele>95.743113333333</ele>
        <time>2018-05-22T13:10:52Z</time>
      </trkpt>
      <trkpt lat="44.40627" lon="1.43928">
        <ele>93.44288</ele>
        <time>2018-05-22T13:11:01Z</time>
      </trkpt>
      <trkpt lat="44.40619" lon="1.43929">
        <ele>96.142833333333</ele>
        <time>2018-05-22T13:11:12Z</time>
      </trkpt>
      <trkpt lat="44.4061" lon="1.43925">
        <ele>97.642993333333</ele>
        <time>2018-05-22T13:11:18Z</time>
      </trkpt>
      <trkpt lat="44.40603" lon="1.43921">
        <ele>98.143173333333</ele>
        <time>2018-05-22T13:11:25Z</time>
      </trkpt>
      <trkpt lat="44.40596" lon="1.43914">
        <ele>97.543453333333</ele>
        <time>2018-05-22T13:11:31Z</time>
      </trkpt>
      <trkpt lat="44.40587" lon="1.43912">
        <ele>84.043513333333</ele>
        <time>2018-05-22T13:11:42Z</time>
      </trkpt>
      <trkpt lat="44.40579" lon="1.4391">
        <ele>82.743613333333</ele>
        <time>2018-05-22T13:11:50Z</time>
      </trkpt>
      <trkpt lat="44.40571" lon="1.4391">
        <ele>86.143593333333</ele>
        <time>2018-05-22T13:11:58Z</time>
      </trkpt>
      <trkpt lat="44.40562" lon="1.43913">
        <ele>84.14348</ele>
        <time>2018-05-22T13:12:05Z</time>
      </trkpt>
      <trkpt lat="44.40554" lon="1.43917">
        <ele>85.94334</ele>
        <time>2018-05-22T13:12:14Z</time>
      </trkpt>
      <trkpt lat="44.40547" lon="1.43921">
        <ele>87.84316</ele>
        <time>2018-05-22T13:12:20Z</time>
      </trkpt>
      <trkpt lat="44.40539" lon="1.43924">
        <ele>90.44306</ele>
        <time>2018-05-22T13:12:27Z</time>
      </trkpt>
      <trkpt lat="44.4053" lon="1.43927">
        <ele>94.742933333333</ele>
        <time>2018-05-22T13:12:36Z</time>
      </trkpt>
      <trkpt lat="44.40523" lon="1.43933">
        <ele>92.742673333333</ele>
        <time>2018-05-22T13:12:46Z</time>
      </trkpt>
      <trkpt lat="44.40519" lon="1.43945">
        <ele>91.342213333333</ele>
        <time>2018-05-22T13:13:02Z</time>
      </trkpt>
      <trkpt lat="44.40525" lon="1.43954">
        <ele>91.24186</ele>
        <time>2018-05-22T13:13:25Z</time>
      </trkpt>
      <trkpt lat="44.4053" lon="1.43963">
        <ele>90.341466666667</ele>
        <time>2018-05-22T13:13:54Z</time>
      </trkpt>
      <trkpt lat="44.40529" lon="1.43966">
        <ele>90.34136</ele>
        <time>2018-05-22T13:13:57Z</time>
      </trkpt>
      <trkpt lat="44.40504" lon="1.43987">
        <ele>75.340513333333</ele>
        <time>2018-05-22T13:16:03Z</time>
      </trkpt>
      <trkpt lat="44.40497" lon="1.43978">
        <ele>51.040893333333</ele>
        <time>2018-05-22T13:16:07Z</time>
      </trkpt>
      <trkpt lat="44.40499" lon="1.43982">
        <ele>58.94074</ele>
        <time>2018-05-22T13:16:18Z</time>
      </trkpt>
      <trkpt lat="44.40498" lon="1.44007">
        <ele>94.43974</ele>
        <time>2018-05-22T13:16:23Z</time>
      </trkpt>
      <trkpt lat="44.40492" lon="1.44004">
        <ele>106.93982666667</ele>
        <time>2018-05-22T13:16:39Z</time>
      </trkpt>
      <trkpt lat="44.40478" lon="1.44001">
        <ele>105.43996666667</ele>
        <time>2018-05-22T13:16:43Z</time>
      </trkpt>
      <trkpt lat="44.40477" lon="1.44013">
        <ele>100.13948</ele>
        <time>2018-05-22T13:16:58Z</time>
      </trkpt>
      <trkpt lat="44.40472" lon="1.44023">
        <ele>96.639093333333</ele>
        <time>2018-05-22T13:17:04Z</time>
      </trkpt>
      <trkpt lat="44.40466" lon="1.4403">
        <ele>91.638786666667</ele>
        <time>2018-05-22T13:17:10Z</time>
      </trkpt>
      <trkpt lat="44.40458" lon="1.44034">
        <ele>93.538626666667</ele>
        <time>2018-05-22T13:17:16Z</time>
      </trkpt>
      <trkpt lat="44.40451" lon="1.4404">
        <ele>93.638386666667</ele>
        <time>2018-05-22T13:17:22Z</time>
      </trkpt>
      <trkpt lat="44.40444" lon="1.44045">
        <ele>94.8382</ele>
        <time>2018-05-22T13:17:28Z</time>
      </trkpt>
      <trkpt lat="44.40438" lon="1.4405">
        <ele>96.237993333333</ele>
        <time>2018-05-22T13:17:33Z</time>
      </trkpt>
      <trkpt lat="44.40432" lon="1.4406">
        <ele>96.137606666667</ele>
        <time>2018-05-22T13:17:41Z</time>
      </trkpt>
      <trkpt lat="44.40431" lon="1.44071">
        <ele>89.73716</ele>
        <time>2018-05-22T13:17:49Z</time>
      </trkpt>
      <trkpt lat="44.40427" lon="1.44082">
        <ele>85.636726666667</ele>
        <time>2018-05-22T13:17:59Z</time>
      </trkpt>
      <trkpt lat="44.4042" lon="1.44088">
        <ele>87.336466666667</ele>
        <time>2018-05-22T13:18:05Z</time>
      </trkpt>
      <trkpt lat="44.40414" lon="1.44096">
        <ele>87.63616</ele>
        <time>2018-05-22T13:18:12Z</time>
      </trkpt>
      <trkpt lat="44.40407" lon="1.44102">
        <ele>90.335926666667</ele>
        <time>2018-05-22T13:18:18Z</time>
      </trkpt>
      <trkpt lat="44.40401" lon="1.44109">
        <ele>91.335653333333</ele>
        <time>2018-05-22T13:18:26Z</time>
      </trkpt>
      <trkpt lat="44.40395" lon="1.44117">
        <ele>95.535326666667</ele>
        <time>2018-05-22T13:18:33Z</time>
      </trkpt>
      <trkpt lat="44.40388" lon="1.44125">
        <ele>96.835013333333</ele>
        <time>2018-05-22T13:18:42Z</time>
      </trkpt>
      <trkpt lat="44.40386" lon="1.4413">
        <ele>95.73482</ele>
        <time>2018-05-22T13:21:52Z</time>
      </trkpt>
      <trkpt lat="44.40385" lon="1.44142">
        <ele>98.234326666667</ele>
        <time>2018-05-22T13:21:59Z</time>
      </trkpt>
      <trkpt lat="44.40389" lon="1.44152">
        <ele>102.93390666667</ele>
        <time>2018-05-22T13:22:10Z</time>
      </trkpt>
      <trkpt lat="44.40395" lon="1.44161">
        <ele>106.23358</ele>
        <time>2018-05-22T13:22:19Z</time>
      </trkpt>
      <trkpt lat="44.40403" lon="1.44166">
        <ele>101.33337333333</ele>
        <time>2018-05-22T13:22:28Z</time>
      </trkpt>
      <trkpt lat="44.40411" lon="1.44168">
        <ele>100.53326666667</ele>
        <time>2018-05-22T13:22:39Z</time>
      </trkpt>
      <trkpt lat="44.40419" lon="1.44164">
        <ele>99.133433333333</ele>
        <time>2018-05-22T13:22:47Z</time>
      </trkpt>
      <trkpt lat="44.40426" lon="1.44159">
        <ele>99.833646666667</ele>
        <time>2018-05-22T13:22:55Z</time>
      </trkpt>
      <trkpt lat="44.40432" lon="1.4415">
        <ele>100.83398666667</ele>
        <time>2018-05-22T13:23:03Z</time>
      </trkpt>
      <trkpt lat="44.40438" lon="1.44143">
        <ele>98.634286666667</ele>
        <time>2018-05-22T13:23:10Z</time>
      </trkpt>
      <trkpt lat="44.40444" lon="1.44134">
        <ele>98.53464</ele>
        <time>2018-05-22T13:23:17Z</time>
      </trkpt>
      <trkpt lat="44.4045" lon="1.44126">
        <ele>96.934946666667</ele>
        <time>2018-05-22T13:23:24Z</time>
      </trkpt>
      <trkpt lat="44.40456" lon="1.44118">
        <ele>95.4353</ele>
        <time>2018-05-22T13:23:31Z</time>
      </trkpt>
      <trkpt lat="44.40461" lon="1.44108">
        <ele>94.435673333333</ele>
        <time>2018-05-22T13:23:38Z</time>
      </trkpt>
      <trkpt lat="44.40466" lon="1.44098">
        <ele>93.836073333333</ele>
        <time>2018-05-22T13:23:45Z</time>
      </trkpt>
      <trkpt lat="44.40471" lon="1.4409">
        <ele>93.3364</ele>
        <time>2018-05-22T13:23:52Z</time>
      </trkpt>
      <trkpt lat="44.40476" lon="1.4408">
        <ele>91.0368</ele>
        <time>2018-05-22T13:24:00Z</time>
      </trkpt>
      <trkpt lat="44.4048" lon="1.4407">
        <ele>89.337206666667</ele>
        <time>2018-05-22T13:24:08Z</time>
      </trkpt>
      <trkpt lat="44.40484" lon="1.44059">
        <ele>89.237646666667</ele>
        <time>2018-05-22T13:24:14Z</time>
      </trkpt>
      <trkpt lat="44.40487" lon="1.44049">
        <ele>89.838053333333</ele>
        <time>2018-05-22T13:24:21Z</time>
      </trkpt>
      <trkpt lat="44.40491" lon="1.44037">
        <ele>91.13852</ele>
        <time>2018-05-22T13:24:29Z</time>
      </trkpt>
      <trkpt lat="44.40496" lon="1.44027">
        <ele>91.93892</ele>
        <time>2018-05-22T13:24:36Z</time>
      </trkpt>
      <trkpt lat="44.40501" lon="1.44017">
        <ele>91.539333333333</ele>
        <time>2018-05-22T13:24:44Z</time>
      </trkpt>
      <trkpt lat="44.40506" lon="1.44008">
        <ele>92.039666666667</ele>
        <time>2018-05-22T13:24:51Z</time>
      </trkpt>
      <trkpt lat="44.40513" lon="1.44004">
        <ele>93.039846666667</ele>
        <time>2018-05-22T13:24:57Z</time>
      </trkpt>
      <trkpt lat="44.40521" lon="1.44002">
        <ele>93.539926666667</ele>
        <time>2018-05-22T13:25:03Z</time>
      </trkpt>
      <trkpt lat="44.40528" lon="1.44">
        <ele>93.240013333333</ele>
        <time>2018-05-22T13:25:10Z</time>
      </trkpt>
      <trkpt lat="44.40537" lon="1.44002">
        <ele>94.539913333333</ele>
        <time>2018-05-22T13:25:16Z</time>
      </trkpt>
      <trkpt lat="44.40545" lon="1.44008">
        <ele>94.2397</ele>
        <time>2018-05-22T13:25:25Z</time>
      </trkpt>
      <trkpt lat="44.40551" lon="1.44013">
        <ele>95.239493333333</ele>
        <time>2018-05-22T13:25:31Z</time>
      </trkpt>
      <trkpt lat="44.40556" lon="1.44021">
        <ele>93.13916</ele>
        <time>2018-05-22T13:25:36Z</time>
      </trkpt>
      <trkpt lat="44.40561" lon="1.4403">
        <ele>91.938786666667</ele>
        <time>2018-05-22T13:25:45Z</time>
      </trkpt>
      <trkpt lat="44.40565" lon="1.4404">
        <ele>93.238413333333</ele>
        <time>2018-05-22T13:25:53Z</time>
      </trkpt>
      <trkpt lat="44.4057" lon="1.4405">
        <ele>95.137986666667</ele>
        <time>2018-05-22T13:26:01Z</time>
      </trkpt>
      <trkpt lat="44.40574" lon="1.4406">
        <ele>97.237593333333</ele>
        <time>2018-05-22T13:26:09Z</time>
      </trkpt>
      <trkpt lat="44.40581" lon="1.44067">
        <ele>100.33730666667</ele>
        <time>2018-05-22T13:26:20Z</time>
      </trkpt>
      <trkpt lat="44.40588" lon="1.44075">
        <ele>102.037</ele>
        <time>2018-05-22T13:26:28Z</time>
      </trkpt>
      <trkpt lat="44.40596" lon="1.44081">
        <ele>106.53676666667</ele>
        <time>2018-05-22T13:26:38Z</time>
      </trkpt>
      <trkpt lat="44.40604" lon="1.44084">
        <ele>104.93666</ele>
        <time>2018-05-22T13:26:45Z</time>
      </trkpt>
      <trkpt lat="44.40612" lon="1.44089">
        <ele>107.13644666667</ele>
        <time>2018-05-22T13:26:54Z</time>
      </trkpt>
      <trkpt lat="44.40618" lon="1.44096">
        <ele>108.33617333333</ele>
        <time>2018-05-22T13:27:01Z</time>
      </trkpt>
      <trkpt lat="44.40623" lon="1.44105">
        <ele>108.43579333333</ele>
        <time>2018-05-22T13:27:08Z</time>
      </trkpt>
      <trkpt lat="44.40626" lon="1.44115">
        <ele>111.63541333333</ele>
        <time>2018-05-22T13:27:20Z</time>
      </trkpt>
      <trkpt lat="44.40631" lon="1.44124">
        <ele>110.73504</ele>
        <time>2018-05-22T13:27:26Z</time>
      </trkpt>
      <trkpt lat="44.40635" lon="1.44135">
        <ele>108.1346</ele>
        <time>2018-05-22T13:27:31Z</time>
      </trkpt>
      <trkpt lat="44.40636" lon="1.44146">
        <ele>107.13414666667</ele>
        <time>2018-05-22T13:27:37Z</time>
      </trkpt>
      <trkpt lat="44.40638" lon="1.44158">
        <ele>101.5337</ele>
        <time>2018-05-22T13:27:43Z</time>
      </trkpt>
      <trkpt lat="44.4064" lon="1.44169">
        <ele>98.033253333333</ele>
        <time>2018-05-22T13:27:50Z</time>
      </trkpt>
      <trkpt lat="44.40642" lon="1.4418">
        <ele>96.332786666667</ele>
        <time>2018-05-22T13:27:58Z</time>
      </trkpt>
      <trkpt lat="44.40647" lon="1.44191">
        <ele>92.632373333333</ele>
        <time>2018-05-22T13:28:05Z</time>
      </trkpt>
      <trkpt lat="44.40646" lon="1.44202">
        <ele>98.331906666667</ele>
        <time>2018-05-22T13:28:13Z</time>
      </trkpt>
      <trkpt lat="44.40646" lon="1.44214">
        <ele>100.03145333333</ele>
        <time>2018-05-22T13:28:20Z</time>
      </trkpt>
      <trkpt lat="44.40646" lon="1.44225">
        <ele>102.73098666667</ele>
        <time>2018-05-22T13:28:28Z</time>
      </trkpt>
      <trkpt lat="44.40646" lon="1.44237">
        <ele>105.43052</ele>
        <time>2018-05-22T13:28:35Z</time>
      </trkpt>
      <trkpt lat="44.40648" lon="1.44249">
        <ele>108.33006</ele>
        <time>2018-05-22T13:28:44Z</time>
      </trkpt>
      <trkpt lat="44.4065" lon="1.4426">
        <ele>111.0296</ele>
        <time>2018-05-22T13:28:53Z</time>
      </trkpt>
      <trkpt lat="44.40652" lon="1.44272">
        <ele>117.92914</ele>
        <time>2018-05-22T13:29:02Z</time>
      </trkpt>
      <trkpt lat="44.40654" lon="1.44283">
        <ele>119.42866666667</ele>
        <time>2018-05-22T13:29:10Z</time>
      </trkpt>
      <trkpt lat="44.40657" lon="1.44294">
        <ele>122.72822666667</ele>
        <time>2018-05-22T13:29:18Z</time>
      </trkpt>
      <trkpt lat="44.40658" lon="1.44306">
        <ele>123.72776666667</ele>
        <time>2018-05-22T13:29:26Z</time>
      </trkpt>
      <trkpt lat="44.4066" lon="1.44318">
        <ele>124.92728</ele>
        <time>2018-05-22T13:29:35Z</time>
      </trkpt>
      <trkpt lat="44.40662" lon="1.4433">
        <ele>125.22680666667</ele>
        <time>2018-05-22T13:29:44Z</time>
      </trkpt>
      <trkpt lat="44.40665" lon="1.44342">
        <ele>125.82633333333</ele>
        <time>2018-05-22T13:29:52Z</time>
      </trkpt>
      <trkpt lat="44.40665" lon="1.44353">
        <ele>126.02587333333</ele>
        <time>2018-05-22T13:30:00Z</time>
      </trkpt>
      <trkpt lat="44.40666" lon="1.44366">
        <ele>126.32537333333</ele>
        <time>2018-05-22T13:30:09Z</time>
      </trkpt>
      <trkpt lat="44.40666" lon="1.44377">
        <ele>127.22491333333</ele>
        <time>2018-05-22T13:30:17Z</time>
      </trkpt>
      <trkpt lat="44.40666" lon="1.4439">
        <ele>126.32441333333</ele>
        <time>2018-05-22T13:30:26Z</time>
      </trkpt>
      <trkpt lat="44.40668" lon="1.44401">
        <ele>126.12394666667</ele>
        <time>2018-05-22T13:30:35Z</time>
      </trkpt>
      <trkpt lat="44.40669" lon="1.44414">
        <ele>128.32346</ele>
        <time>2018-05-22T13:30:44Z</time>
      </trkpt>
      <trkpt lat="44.40672" lon="1.44425">
        <ele>128.82301333333</ele>
        <time>2018-05-22T13:30:52Z</time>
      </trkpt>
      <trkpt lat="44.40675" lon="1.44436">
        <ele>132.72256</ele>
        <time>2018-05-22T13:31:01Z</time>
      </trkpt>
      <trkpt lat="44.40678" lon="1.44447">
        <ele>137.52210666667</ele>
        <time>2018-05-22T13:31:16Z</time>
      </trkpt>
      <trkpt lat="44.4068" lon="1.44459">
        <ele>136.22166</ele>
        <time>2018-05-22T13:31:26Z</time>
      </trkpt>
      <trkpt lat="44.40682" lon="1.4447">
        <ele>134.62118666667</ele>
        <time>2018-05-22T13:31:34Z</time>
      </trkpt>
      <trkpt lat="44.40684" lon="1.44482">
        <ele>133.72074</ele>
        <time>2018-05-22T13:31:42Z</time>
      </trkpt>
      <trkpt lat="44.40685" lon="1.44493">
        <ele>133.42029333333</ele>
        <time>2018-05-22T13:31:50Z</time>
      </trkpt>
      <trkpt lat="44.40685" lon="1.44504">
        <ele>135.01982666667</ele>
        <time>2018-05-22T13:31:58Z</time>
      </trkpt>
      <trkpt lat="44.40681" lon="1.44516">
        <ele>137.91938</ele>
        <time>2018-05-22T13:32:05Z</time>
      </trkpt>
      <trkpt lat="44.40677" lon="1.44526">
        <ele>143.81896</ele>
        <time>2018-05-22T13:32:13Z</time>
      </trkpt>
      <trkpt lat="44.40673" lon="1.44537">
        <ele>144.81854</ele>
        <time>2018-05-22T13:32:21Z</time>
      </trkpt>
      <trkpt lat="44.40667" lon="1.44545">
        <ele>142.61822</ele>
        <time>2018-05-22T13:32:28Z</time>
      </trkpt>
      <trkpt lat="44.40662" lon="1.44555">
        <ele>139.61780666667</ele>
        <time>2018-05-22T13:32:36Z</time>
      </trkpt>
      <trkpt lat="44.40656" lon="1.44563">
        <ele>140.71748666667</ele>
        <time>2018-05-22T13:32:45Z</time>
      </trkpt>
      <trkpt lat="44.40651" lon="1.44571">
        <ele>141.11716</ele>
        <time>2018-05-22T13:32:53Z</time>
      </trkpt>
      <trkpt lat="44.40645" lon="1.4458">
        <ele>141.01682</ele>
        <time>2018-05-22T13:33:00Z</time>
      </trkpt>
      <trkpt lat="44.40639" lon="1.44589">
        <ele>142.41644666667</ele>
        <time>2018-05-22T13:33:08Z</time>
      </trkpt>
      <trkpt lat="44.40635" lon="1.44599">
        <ele>143.11602666667</ele>
        <time>2018-05-22T13:33:16Z</time>
      </trkpt>
      <trkpt lat="44.4063" lon="1.4461">
        <ele>145.11558666667</ele>
        <time>2018-05-22T13:33:26Z</time>
      </trkpt>
      <trkpt lat="44.40628" lon="1.44622">
        <ele>147.31510666667</ele>
        <time>2018-05-22T13:33:35Z</time>
      </trkpt>
      <trkpt lat="44.40626" lon="1.44634">
        <ele>148.01464</ele>
        <time>2018-05-22T13:33:45Z</time>
      </trkpt>
      <trkpt lat="44.40627" lon="1.44647">
        <ele>149.71414</ele>
        <time>2018-05-22T13:33:54Z</time>
      </trkpt>
      <trkpt lat="44.40631" lon="1.44658">
        <ele>153.4137</ele>
        <time>2018-05-22T13:34:04Z</time>
      </trkpt>
      <trkpt lat="44.40631" lon="1.44669">
        <ele>156.61322666667</ele>
        <time>2018-05-22T13:34:11Z</time>
      </trkpt>
      <trkpt lat="44.40632" lon="1.44681">
        <ele>154.41274666667</ele>
        <time>2018-05-22T13:34:20Z</time>
      </trkpt>
      <trkpt lat="44.40634" lon="1.44692">
        <ele>154.51230666667</ele>
        <time>2018-05-22T13:34:29Z</time>
      </trkpt>
      <trkpt lat="44.40635" lon="1.44704">
        <ele>155.61184</ele>
        <time>2018-05-22T13:34:39Z</time>
      </trkpt>
      <trkpt lat="44.40636" lon="1.44716">
        <ele>153.81135333333</ele>
        <time>2018-05-22T13:34:50Z</time>
      </trkpt>
      <trkpt lat="44.40634" lon="1.44728">
        <ele>153.21089333333</ele>
        <time>2018-05-22T13:34:59Z</time>
      </trkpt>
      <trkpt lat="44.40634" lon="1.44739">
        <ele>154.31043333333</ele>
        <time>2018-05-22T13:35:09Z</time>
      </trkpt>
      <trkpt lat="44.40637" lon="1.4475">
        <ele>157.31</ele>
        <time>2018-05-22T13:35:16Z</time>
      </trkpt>
      <trkpt lat="44.4064" lon="1.44761">
        <ele>160.10955333333</ele>
        <time>2018-05-22T13:35:25Z</time>
      </trkpt>
      <trkpt lat="44.40643" lon="1.44772">
        <ele>161.70910666667</ele>
        <time>2018-05-22T13:35:35Z</time>
      </trkpt>
      <trkpt lat="44.40648" lon="1.44782">
        <ele>162.10872</ele>
        <time>2018-05-22T13:35:46Z</time>
      </trkpt>
      <trkpt lat="44.40653" lon="1.44791">
        <ele>163.40835333333</ele>
        <time>2018-05-22T13:35:56Z</time>
      </trkpt>
      <trkpt lat="44.40654" lon="1.44803">
        <ele>166.10789333333</ele>
        <time>2018-05-22T13:36:05Z</time>
      </trkpt>
      <trkpt lat="44.40649" lon="1.44813">
        <ele>166.20749333333</ele>
        <time>2018-05-22T13:36:15Z</time>
      </trkpt>
      <trkpt lat="44.4064" lon="1.44813">
        <ele>174.70748</ele>
        <time>2018-05-22T13:36:35Z</time>
      </trkpt>
      <trkpt lat="44.40632" lon="1.44809">
        <ele>175.20764666667</ele>
        <time>2018-05-22T13:36:43Z</time>
      </trkpt>
      <trkpt lat="44.40628" lon="1.44798">
        <ele>171.60806666667</ele>
        <time>2018-05-22T13:39:43Z</time>
      </trkpt>
      <trkpt lat="44.4062" lon="1.44796">
        <ele>178.20816</ele>
        <time>2018-05-22T13:39:50Z</time>
      </trkpt>
      <trkpt lat="44.40614" lon="1.44789">
        <ele>171.00844</ele>
        <time>2018-05-22T13:40:00Z</time>
      </trkpt>
      <trkpt lat="44.40608" lon="1.44781">
        <ele>166.20875333333</ele>
        <time>2018-05-22T13:40:07Z</time>
      </trkpt>
      <trkpt lat="44.40601" lon="1.44776">
        <ele>167.70896</ele>
        <time>2018-05-22T13:40:14Z</time>
      </trkpt>
      <trkpt lat="44.40594" lon="1.44769">
        <ele>172.30923333333</ele>
        <time>2018-05-22T13:40:22Z</time>
      </trkpt>
      <trkpt lat="44.40586" lon="1.44766">
        <ele>176.50937333333</ele>
        <time>2018-05-22T13:40:31Z</time>
      </trkpt>
      <trkpt lat="44.40579" lon="1.44772">
        <ele>175.30913333333</ele>
        <time>2018-05-22T13:40:39Z</time>
      </trkpt>
      <trkpt lat="44.40574" lon="1.4478">
        <ele>173.00878666667</ele>
        <time>2018-05-22T13:40:47Z</time>
      </trkpt>
      <trkpt lat="44.40577" lon="1.44791">
        <ele>172.60835333333</ele>
        <time>2018-05-22T13:40:55Z</time>
      </trkpt>
      <trkpt lat="44.40581" lon="1.44802">
        <ele>171.20794</ele>
        <time>2018-05-22T13:41:03Z</time>
      </trkpt>
      <trkpt lat="44.40587" lon="1.44811">
        <ele>167.80755333333</ele>
        <time>2018-05-22T13:41:10Z</time>
      </trkpt>
      <trkpt lat="44.40589" lon="1.44823">
        <ele>166.5071</ele>
        <time>2018-05-22T13:41:17Z</time>
      </trkpt>
      <trkpt lat="44.40591" lon="1.44835">
        <ele>165.90661333333</ele>
        <time>2018-05-22T13:41:25Z</time>
      </trkpt>
      <trkpt lat="44.40593" lon="1.44846">
        <ele>166.80614666667</ele>
        <time>2018-05-22T13:41:37Z</time>
      </trkpt>
      <trkpt lat="44.40597" lon="1.44858">
        <ele>168.7057</ele>
        <time>2018-05-22T13:41:50Z</time>
      </trkpt>
      <trkpt lat="44.40601" lon="1.44869">
        <ele>170.90526</ele>
        <time>2018-05-22T13:42:00Z</time>
      </trkpt>
      <trkpt lat="44.40606" lon="1.44878">
        <ele>174.10486666667</ele>
        <time>2018-05-22T13:42:10Z</time>
      </trkpt>
      <trkpt lat="44.40611" lon="1.44887">
        <ele>176.00451333333</ele>
        <time>2018-05-22T13:42:21Z</time>
      </trkpt>
      <trkpt lat="44.40615" lon="1.44898">
        <ele>179.00408</ele>
        <time>2018-05-22T13:42:31Z</time>
      </trkpt>
      <trkpt lat="44.40617" lon="1.4491">
        <ele>182.00362</ele>
        <time>2018-05-22T13:42:42Z</time>
      </trkpt>
      <trkpt lat="44.40618" lon="1.4492">
        <ele>181.90320666667</ele>
        <time>2018-05-22T13:43:00Z</time>
      </trkpt>
      <trkpt lat="44.40615" lon="1.44932">
        <ele>180.90274</ele>
        <time>2018-05-22T13:43:09Z</time>
      </trkpt>
      <trkpt lat="44.40614" lon="1.44943">
        <ele>178.10226666667</ele>
        <time>2018-05-22T13:43:20Z</time>
      </trkpt>
      <trkpt lat="44.40617" lon="1.44954">
        <ele>179.50184666667</ele>
        <time>2018-05-22T13:43:28Z</time>
      </trkpt>
      <trkpt lat="44.40621" lon="1.44965">
        <ele>180.2014</ele>
        <time>2018-05-22T13:43:39Z</time>
      </trkpt>
      <trkpt lat="44.40622" lon="1.44977">
        <ele>182.90093333333</ele>
        <time>2018-05-22T13:43:48Z</time>
      </trkpt>
      <trkpt lat="44.40623" lon="1.44989">
        <ele>186.40045333333</ele>
        <time>2018-05-22T13:43:56Z</time>
      </trkpt>
      <trkpt lat="44.40626" lon="1.45001">
        <ele>187.29998</ele>
        <time>2018-05-22T13:44:04Z</time>
      </trkpt>
      <trkpt lat="44.40628" lon="1.45012">
        <ele>188.49950666667</ele>
        <time>2018-05-22T13:44:12Z</time>
      </trkpt>
      <trkpt lat="44.4063" lon="1.45024">
        <ele>188.79905333333</ele>
        <time>2018-05-22T13:44:22Z</time>
      </trkpt>
      <trkpt lat="44.40631" lon="1.45036">
        <ele>192.09856</ele>
        <time>2018-05-22T13:44:29Z</time>
      </trkpt>
      <trkpt lat="44.40632" lon="1.45048">
        <ele>193.59808666667</ele>
        <time>2018-05-22T13:44:37Z</time>
      </trkpt>
      <trkpt lat="44.40632" lon="1.4506">
        <ele>177.69758666667</ele>
        <time>2018-05-22T13:45:00Z</time>
      </trkpt>
      <trkpt lat="44.4063" lon="1.45071">
        <ele>173.69716</ele>
        <time>2018-05-22T13:45:05Z</time>
      </trkpt>
      <trkpt lat="44.4063" lon="1.45084">
        <ele>175.39666</ele>
        <time>2018-05-22T13:45:12Z</time>
      </trkpt>
      <trkpt lat="44.40632" lon="1.45094">
        <ele>176.59623333333</ele>
        <time>2018-05-22T13:45:20Z</time>
      </trkpt>
      <trkpt lat="44.40632" lon="1.45106">
        <ele>176.99578</ele>
        <time>2018-05-22T13:45:30Z</time>
      </trkpt>
      <trkpt lat="44.40632" lon="1.45117">
        <ele>178.99533333333</ele>
        <time>2018-05-22T13:45:38Z</time>
      </trkpt>
      <trkpt lat="44.40634" lon="1.45127">
        <ele>182.99490666667</ele>
        <time>2018-05-22T13:45:45Z</time>
      </trkpt>
      <trkpt lat="44.40637" lon="1.45137">
        <ele>186.09450666667</ele>
        <time>2018-05-22T13:45:51Z</time>
      </trkpt>
      <trkpt lat="44.40641" lon="1.45148">
        <ele>182.49407333333</ele>
        <time>2018-05-22T13:45:59Z</time>
      </trkpt>
      <trkpt lat="44.4064" lon="1.4516">
        <ele>182.89360666667</ele>
        <time>2018-05-22T13:46:04Z</time>
      </trkpt>
      <trkpt lat="44.40641" lon="1.45172">
        <ele>178.19310666667</ele>
        <time>2018-05-22T13:46:13Z</time>
      </trkpt>
      <trkpt lat="44.40642" lon="1.45184">
        <ele>172.99266</ele>
        <time>2018-05-22T13:46:23Z</time>
      </trkpt>
      <trkpt lat="44.4064" lon="1.45194">
        <ele>175.49224</ele>
        <time>2018-05-22T13:46:28Z</time>
      </trkpt>
      <trkpt lat="44.4064" lon="1.45206">
        <ele>178.59176</ele>
        <time>2018-05-22T13:46:34Z</time>
      </trkpt>
      <trkpt lat="44.4064" lon="1.45217">
        <ele>180.89132666667</ele>
        <time>2018-05-22T13:46:40Z</time>
      </trkpt>
      <trkpt lat="44.40639" lon="1.45229">
        <ele>183.99083333333</ele>
        <time>2018-05-22T13:46:47Z</time>
      </trkpt>
      <trkpt lat="44.40639" lon="1.45241">
        <ele>188.09034666667</ele>
        <time>2018-05-22T13:46:55Z</time>
      </trkpt>
      <trkpt lat="44.4064" lon="1.45254">
        <ele>189.58986</ele>
        <time>2018-05-22T13:47:02Z</time>
      </trkpt>
      <trkpt lat="44.40641" lon="1.45264">
        <ele>191.88942666667</ele>
        <time>2018-05-22T13:47:09Z</time>
      </trkpt>
      <trkpt lat="44.40641" lon="1.45277">
        <ele>195.18894</ele>
        <time>2018-05-22T13:47:17Z</time>
      </trkpt>
      <trkpt lat="44.40644" lon="1.45288">
        <ele>197.78848666667</ele>
        <time>2018-05-22T13:47:40Z</time>
      </trkpt>
      <trkpt lat="44.40649" lon="1.45297">
        <ele>195.98812666667</ele>
        <time>2018-05-22T13:47:48Z</time>
      </trkpt>
      <trkpt lat="44.40656" lon="1.45305">
        <ele>192.78780666667</ele>
        <time>2018-05-22T13:47:58Z</time>
      </trkpt>
      <trkpt lat="44.40655" lon="1.45312">
        <ele>179.38753333333</ele>
        <time>2018-05-22T13:49:08Z</time>
      </trkpt>
      <trkpt lat="44.4065" lon="1.453">
        <ele>187.088</ele>
        <time>2018-05-22T13:49:12Z</time>
      </trkpt>
      <trkpt lat="44.4065" lon="1.453">
        <ele>187.088</ele>
        <time>2018-05-22T13:49:22Z</time>
      </trkpt>
      <trkpt lat="44.40662" lon="1.45309">
        <ele>181.98763333333</ele>
        <time>2018-05-22T13:49:27Z</time>
      </trkpt>
      <trkpt lat="44.40665" lon="1.453">
        <ele>189.98801333333</ele>
        <time>2018-05-22T13:49:57Z</time>
      </trkpt>
      <trkpt lat="44.40671" lon="1.45292">
        <ele>185.48834</ele>
        <time>2018-05-22T13:50:18Z</time>
      </trkpt>
      <trkpt lat="44.40676" lon="1.45281">
        <ele>194.38875333333</ele>
        <time>2018-05-22T13:50:37Z</time>
      </trkpt>
      <trkpt lat="44.4068" lon="1.4527">
        <ele>197.68920666667</ele>
        <time>2018-05-22T13:50:46Z</time>
      </trkpt>
      <trkpt lat="44.40678" lon="1.45258">
        <ele>196.28968666667</ele>
        <time>2018-05-22T13:50:59Z</time>
      </trkpt>
      <trkpt lat="44.40682" lon="1.45248">
        <ele>197.29008666667</ele>
        <time>2018-05-22T13:51:06Z</time>
      </trkpt>
      <trkpt lat="44.40686" lon="1.45238">
        <ele>199.99048</ele>
        <time>2018-05-22T13:51:13Z</time>
      </trkpt>
      <trkpt lat="44.40692" lon="1.4523">
        <ele>196.59081333333</ele>
        <time>2018-05-22T13:51:18Z</time>
      </trkpt>
      <trkpt lat="44.40697" lon="1.45221">
        <ele>193.59118</ele>
        <time>2018-05-22T13:51:24Z</time>
      </trkpt>
      <trkpt lat="44.40702" lon="1.4521">
        <ele>185.8916</ele>
        <time>2018-05-22T13:51:32Z</time>
      </trkpt>
      <trkpt lat="44.40709" lon="1.45204">
        <ele>187.69186</ele>
        <time>2018-05-22T13:51:40Z</time>
      </trkpt>
      <trkpt lat="44.40717" lon="1.45199">
        <ele>190.49206</ele>
        <time>2018-05-22T13:52:13Z</time>
      </trkpt>
      <trkpt lat="44.40719" lon="1.45188">
        <ele>190.99248</ele>
        <time>2018-05-22T13:52:20Z</time>
      </trkpt>
      <trkpt lat="44.40721" lon="1.45177">
        <ele>193.39291333333</ele>
        <time>2018-05-22T13:52:26Z</time>
      </trkpt>
      <trkpt lat="44.40724" lon="1.45166">
        <ele>196.49336666667</ele>
        <time>2018-05-22T13:52:32Z</time>
      </trkpt>
      <trkpt lat="44.40727" lon="1.45155">
        <ele>199.1938</ele>
        <time>2018-05-22T13:52:38Z</time>
      </trkpt>
      <trkpt lat="44.40729" lon="1.45143">
        <ele>200.99427333333</ele>
        <time>2018-05-22T13:52:45Z</time>
      </trkpt>
      <trkpt lat="44.40733" lon="1.45133">
        <ele>200.4947</ele>
        <time>2018-05-22T13:52:51Z</time>
      </trkpt>
      <trkpt lat="44.40736" lon="1.45123">
        <ele>200.7951</ele>
        <time>2018-05-22T13:52:57Z</time>
      </trkpt>
      <trkpt lat="44.4074" lon="1.45112">
        <ele>196.19551333333</ele>
        <time>2018-05-22T13:53:03Z</time>
      </trkpt>
      <trkpt lat="44.40746" lon="1.45103">
        <ele>196.89588</ele>
        <time>2018-05-22T13:53:10Z</time>
      </trkpt>
      <trkpt lat="44.40752" lon="1.45095">
        <ele>197.69618666667</ele>
        <time>2018-05-22T13:53:16Z</time>
      </trkpt>
      <trkpt lat="44.40758" lon="1.45088">
        <ele>197.6965</ele>
        <time>2018-05-22T13:53:21Z</time>
      </trkpt>
      <trkpt lat="44.40764" lon="1.4508">
        <ele>197.89681333333</ele>
        <time>2018-05-22T13:53:27Z</time>
      </trkpt>
      <trkpt lat="44.40768" lon="1.45071">
        <ele>195.29718</ele>
        <time>2018-05-22T13:53:32Z</time>
      </trkpt>
      <trkpt lat="44.4077" lon="1.45059">
        <ele>193.09763333333</ele>
        <time>2018-05-22T13:53:38Z</time>
      </trkpt>
      <trkpt lat="44.40772" lon="1.45048">
        <ele>195.49807333333</ele>
        <time>2018-05-22T13:53:45Z</time>
      </trkpt>
      <trkpt lat="44.40774" lon="1.45037">
        <ele>193.49852</ele>
        <time>2018-05-22T13:53:52Z</time>
      </trkpt>
      <trkpt lat="44.40777" lon="1.45027">
        <ele>196.19893333333</ele>
        <time>2018-05-22T13:53:57Z</time>
      </trkpt>
      <trkpt lat="44.40782" lon="1.45017">
        <ele>201.59930666667</ele>
        <time>2018-05-22T13:54:03Z</time>
      </trkpt>
      <trkpt lat="44.4079" lon="1.45012">
        <ele>201.69950666667</ele>
        <time>2018-05-22T13:54:09Z</time>
      </trkpt>
      <trkpt lat="44.40796" lon="1.45005">
        <ele>202.39980666667</ele>
        <time>2018-05-22T13:54:16Z</time>
      </trkpt>
      <trkpt lat="44.40802" lon="1.44996">
        <ele>201.30015333333</ele>
        <time>2018-05-22T13:54:23Z</time>
      </trkpt>
      <trkpt lat="44.40809" lon="1.44989">
        <ele>203.00046</ele>
        <time>2018-05-22T13:54:29Z</time>
      </trkpt>
      <trkpt lat="44.40813" lon="1.44979">
        <ele>201.30085333333</ele>
        <time>2018-05-22T13:54:36Z</time>
      </trkpt>
      <trkpt lat="44.4082" lon="1.44972">
        <ele>200.90113333333</ele>
        <time>2018-05-22T13:54:44Z</time>
      </trkpt>
      <trkpt lat="44.40825" lon="1.44963">
        <ele>201.70148</ele>
        <time>2018-05-22T13:54:51Z</time>
      </trkpt>
      <trkpt lat="44.40832" lon="1.44957">
        <ele>200.10171333333</ele>
        <time>2018-05-22T13:54:59Z</time>
      </trkpt>
      <trkpt lat="44.40838" lon="1.44949">
        <ele>191.20203333333</ele>
        <time>2018-05-22T13:55:06Z</time>
      </trkpt>
      <trkpt lat="44.40843" lon="1.4494">
        <ele>189.1024</ele>
        <time>2018-05-22T13:55:13Z</time>
      </trkpt>
      <trkpt lat="44.40849" lon="1.44931">
        <ele>188.40276</ele>
        <time>2018-05-22T13:55:23Z</time>
      </trkpt>
      <trkpt lat="44.40854" lon="1.44923">
        <ele>188.40306666667</ele>
        <time>2018-05-22T13:55:31Z</time>
      </trkpt>
      <trkpt lat="44.40858" lon="1.44914">
        <ele>192.20344666667</ele>
        <time>2018-05-22T13:55:37Z</time>
      </trkpt>
      <trkpt lat="44.40862" lon="1.44904">
        <ele>193.60386</ele>
        <time>2018-05-22T13:55:45Z</time>
      </trkpt>
      <trkpt lat="44.40867" lon="1.44896">
        <ele>194.30417333333</ele>
        <time>2018-05-22T13:55:53Z</time>
      </trkpt>
      <trkpt lat="44.40873" lon="1.44886">
        <ele>195.30455333333</ele>
        <time>2018-05-22T13:56:01Z</time>
      </trkpt>
      <trkpt lat="44.40877" lon="1.44876">
        <ele>195.70498</ele>
        <time>2018-05-22T13:56:09Z</time>
      </trkpt>
      <trkpt lat="44.40882" lon="1.44866">
        <ele>197.00536666667</ele>
        <time>2018-05-22T13:56:17Z</time>
      </trkpt>
      <trkpt lat="44.40886" lon="1.44855">
        <ele>194.80579333333</ele>
        <time>2018-05-22T13:56:25Z</time>
      </trkpt>
      <trkpt lat="44.40887" lon="1.44843">
        <ele>193.50629333333</ele>
        <time>2018-05-22T13:56:36Z</time>
      </trkpt>
      <trkpt lat="44.40888" lon="1.44831">
        <ele>194.60674666667</ele>
        <time>2018-05-22T13:56:46Z</time>
      </trkpt>
      <trkpt lat="44.40891" lon="1.4482">
        <ele>198.00720666667</ele>
        <time>2018-05-22T13:56:55Z</time>
      </trkpt>
      <trkpt lat="44.40895" lon="1.4481">
        <ele>199.9076</ele>
        <time>2018-05-22T13:57:03Z</time>
      </trkpt>
      <trkpt lat="44.40898" lon="1.44798">
        <ele>201.90807333333</ele>
        <time>2018-05-22T13:57:13Z</time>
      </trkpt>
      <trkpt lat="44.40902" lon="1.44791">
        <ele>194.70837333333</ele>
        <time>2018-05-22T13:58:55Z</time>
      </trkpt>
      <trkpt lat="44.40905" lon="1.44797">
        <ele>177.20812666667</ele>
        <time>2018-05-22T13:59:31Z</time>
      </trkpt>
      <trkpt lat="44.40895" lon="1.44805">
        <ele>183.50781333333</ele>
        <time>2018-05-22T13:59:35Z</time>
      </trkpt>
      <trkpt lat="44.40894" lon="1.44805">
        <ele>179.90782</ele>
        <time>2018-05-22T14:00:03Z</time>
      </trkpt>
      <trkpt lat="44.40899" lon="1.44791">
        <ele>189.20835333333</ele>
        <time>2018-05-22T14:00:07Z</time>
      </trkpt>
      <trkpt lat="44.40905" lon="1.44791">
        <ele>212.80837333333</ele>
        <time>2018-05-22T14:00:48Z</time>
      </trkpt>
      <trkpt lat="44.40896" lon="1.44789">
        <ele>199.10846</ele>
        <time>2018-05-22T14:00:53Z</time>
      </trkpt>
      <trkpt lat="44.40894" lon="1.4479">
        <ele>175.70840666667</ele>
        <time>2018-05-22T14:03:06Z</time>
      </trkpt>
      <trkpt lat="44.40901" lon="1.44799">
        <ele>192.00804666667</ele>
        <time>2018-05-22T14:03:11Z</time>
      </trkpt>
      <trkpt lat="44.409" lon="1.44787">
        <ele>186.30853333333</ele>
        <time>2018-05-22T14:03:59Z</time>
      </trkpt>
      <trkpt lat="44.40906" lon="1.44779">
        <ele>179.30885333333</ele>
        <time>2018-05-22T14:04:18Z</time>
      </trkpt>
      <trkpt lat="44.40904" lon="1.44769">
        <ele>190.90924</ele>
        <time>2018-05-22T14:04:56Z</time>
      </trkpt>
      <trkpt lat="44.40909" lon="1.4476">
        <ele>196.2096</ele>
        <time>2018-05-22T14:05:14Z</time>
      </trkpt>
      <trkpt lat="44.40914" lon="1.44769">
        <ele>189.90922666667</ele>
        <time>2018-05-22T14:05:21Z</time>
      </trkpt>
      <trkpt lat="44.40912" lon="1.44782">
        <ele>194.20874</ele>
        <time>2018-05-22T14:07:06Z</time>
      </trkpt>
      <trkpt lat="44.40896" lon="1.44778">
        <ele>225.80888666667</ele>
        <time>2018-05-22T14:07:10Z</time>
      </trkpt>
      <trkpt lat="44.40897" lon="1.44781">
        <ele>219.10876666667</ele>
        <time>2018-05-22T14:08:27Z</time>
      </trkpt>
      <trkpt lat="44.40907" lon="1.44783">
        <ele>212.90868666667</ele>
        <time>2018-05-22T14:08:31Z</time>
      </trkpt>
      <trkpt lat="44.40912" lon="1.44773">
        <ele>206.20908</ele>
        <time>2018-05-22T14:08:51Z</time>
      </trkpt>
      <trkpt lat="44.40919" lon="1.44766">
        <ele>199.00934666667</ele>
        <time>2018-05-22T14:09:02Z</time>
      </trkpt>
      <trkpt lat="44.40926" lon="1.44759">
        <ele>191.60966</ele>
        <time>2018-05-22T14:09:13Z</time>
      </trkpt>
      <trkpt lat="44.40932" lon="1.44751">
        <ele>192.10998</ele>
        <time>2018-05-22T14:09:22Z</time>
      </trkpt>
      <trkpt lat="44.40939" lon="1.44744">
        <ele>194.71025333333</ele>
        <time>2018-05-22T14:09:31Z</time>
      </trkpt>
      <trkpt lat="44.40946" lon="1.44737">
        <ele>193.61050666667</ele>
        <time>2018-05-22T14:09:41Z</time>
      </trkpt>
      <trkpt lat="44.40953" lon="1.4473">
        <ele>195.61080666667</ele>
        <time>2018-05-22T14:09:49Z</time>
      </trkpt>
      <trkpt lat="44.40959" lon="1.44724">
        <ele>199.51105333333</ele>
        <time>2018-05-22T14:09:56Z</time>
      </trkpt>
      <trkpt lat="44.40966" lon="1.44717">
        <ele>201.51132</ele>
        <time>2018-05-22T14:10:04Z</time>
      </trkpt>
      <trkpt lat="44.40974" lon="1.44714">
        <ele>202.81146</ele>
        <time>2018-05-22T14:10:11Z</time>
      </trkpt>
      <trkpt lat="44.40982" lon="1.4471">
        <ele>206.41162</ele>
        <time>2018-05-22T14:10:19Z</time>
      </trkpt>
      <trkpt lat="44.40989" lon="1.44703">
        <ele>205.31189333333</ele>
        <time>2018-05-22T14:10:27Z</time>
      </trkpt>
      <trkpt lat="44.40996" lon="1.44696">
        <ele>206.81218</ele>
        <time>2018-05-22T14:10:37Z</time>
      </trkpt>
      <trkpt lat="44.41001" lon="1.44687">
        <ele>208.41252</ele>
        <time>2018-05-22T14:10:44Z</time>
      </trkpt>
      <trkpt lat="44.41007" lon="1.44679">
        <ele>209.21286</ele>
        <time>2018-05-22T14:10:51Z</time>
      </trkpt>
      <trkpt lat="44.41014" lon="1.44672">
        <ele>213.61311333333</ele>
        <time>2018-05-22T14:10:59Z</time>
      </trkpt>
      <trkpt lat="44.41021" lon="1.44665">
        <ele>215.41342</ele>
        <time>2018-05-22T14:11:09Z</time>
      </trkpt>
      <trkpt lat="44.41028" lon="1.4466">
        <ele>212.21358666667</ele>
        <time>2018-05-22T14:11:17Z</time>
      </trkpt>
      <trkpt lat="44.41037" lon="1.44657">
        <ele>211.21371333333</ele>
        <time>2018-05-22T14:11:24Z</time>
      </trkpt>
      <trkpt lat="44.41045" lon="1.44655">
        <ele>213.81381333333</ele>
        <time>2018-05-22T14:11:35Z</time>
      </trkpt>
      <trkpt lat="44.41051" lon="1.44646">
        <ele>208.41416</ele>
        <time>2018-05-22T14:11:40Z</time>
      </trkpt>
      <trkpt lat="44.41059" lon="1.44641">
        <ele>208.11438</ele>
        <time>2018-05-22T14:11:49Z</time>
      </trkpt>
      <trkpt lat="44.41067" lon="1.44636">
        <ele>210.11454666667</ele>
        <time>2018-05-22T14:11:57Z</time>
      </trkpt>
      <trkpt lat="44.41074" lon="1.4463">
        <ele>210.21479333333</ele>
        <time>2018-05-22T14:12:04Z</time>
      </trkpt>
      <trkpt lat="44.41083" lon="1.44626">
        <ele>210.41495333333</ele>
        <time>2018-05-22T14:12:12Z</time>
      </trkpt>
      <trkpt lat="44.41091" lon="1.44627">
        <ele>208.91492666667</ele>
        <time>2018-05-22T14:12:19Z</time>
      </trkpt>
      <trkpt lat="44.41098" lon="1.44621">
        <ele>213.11517333333</ele>
        <time>2018-05-22T14:12:27Z</time>
      </trkpt>
      <trkpt lat="44.41106" lon="1.44614">
        <ele>215.51544666667</ele>
        <time>2018-05-22T14:12:36Z</time>
      </trkpt>
      <trkpt lat="44.41114" lon="1.44609">
        <ele>214.71562666667</ele>
        <time>2018-05-22T14:12:43Z</time>
      </trkpt>
      <trkpt lat="44.41121" lon="1.44605">
        <ele>212.51578666667</ele>
        <time>2018-05-22T14:12:50Z</time>
      </trkpt>
      <trkpt lat="44.41129" lon="1.44601">
        <ele>208.21598</ele>
        <time>2018-05-22T14:12:58Z</time>
      </trkpt>
      <trkpt lat="44.41137" lon="1.44596">
        <ele>204.51616</ele>
        <time>2018-05-22T14:13:05Z</time>
      </trkpt>
      <trkpt lat="44.41145" lon="1.446">
        <ele>201.116</ele>
        <time>2018-05-22T14:13:14Z</time>
      </trkpt>
      <trkpt lat="44.41153" lon="1.44605">
        <ele>196.21582</ele>
        <time>2018-05-22T14:13:20Z</time>
      </trkpt>
      <trkpt lat="44.41162" lon="1.44605">
        <ele>191.71580666667</ele>
        <time>2018-05-22T14:13:27Z</time>
      </trkpt>
      <trkpt lat="44.41169" lon="1.44598">
        <ele>188.41606666667</ele>
        <time>2018-05-22T14:13:34Z</time>
      </trkpt>
      <trkpt lat="44.41176" lon="1.44592">
        <ele>188.71634</ele>
        <time>2018-05-22T14:13:43Z</time>
      </trkpt>
      <trkpt lat="44.41185" lon="1.44588">
        <ele>188.7165</ele>
        <time>2018-05-22T14:13:51Z</time>
      </trkpt>
      <trkpt lat="44.41193" lon="1.44586">
        <ele>190.01655333333</ele>
        <time>2018-05-22T14:13:58Z</time>
      </trkpt>
      <trkpt lat="44.41201" lon="1.44586">
        <ele>189.91654666667</ele>
        <time>2018-05-22T14:14:04Z</time>
      </trkpt>
      <trkpt lat="44.41209" lon="1.44585">
        <ele>192.61658666667</ele>
        <time>2018-05-22T14:14:11Z</time>
      </trkpt>
      <trkpt lat="44.41218" lon="1.44585">
        <ele>199.9166</ele>
        <time>2018-05-22T14:14:18Z</time>
      </trkpt>
      <trkpt lat="44.41226" lon="1.44581">
        <ele>204.51674666667</ele>
        <time>2018-05-22T14:14:27Z</time>
      </trkpt>
      <trkpt lat="44.41234" lon="1.44577">
        <ele>205.41693333333</ele>
        <time>2018-05-22T14:14:35Z</time>
      </trkpt>
      <trkpt lat="44.41242" lon="1.44575">
        <ele>208.017</ele>
        <time>2018-05-22T14:14:42Z</time>
      </trkpt>
      <trkpt lat="44.41251" lon="1.44578">
        <ele>208.71686666667</ele>
        <time>2018-05-22T14:14:49Z</time>
      </trkpt>
      <trkpt lat="44.41259" lon="1.44583">
        <ele>206.0167</ele>
        <time>2018-05-22T14:14:55Z</time>
      </trkpt>
      <trkpt lat="44.41267" lon="1.4458">
        <ele>201.71682</ele>
        <time>2018-05-22T14:15:03Z</time>
      </trkpt>
      <trkpt lat="44.41276" lon="1.44581">
        <ele>199.01674666667</ele>
        <time>2018-05-22T14:15:11Z</time>
      </trkpt>
      <trkpt lat="44.41284" lon="1.44583">
        <ele>199.61666666667</ele>
        <time>2018-05-22T14:15:19Z</time>
      </trkpt>
      <trkpt lat="44.41292" lon="1.44583">
        <ele>203.21668</ele>
        <time>2018-05-22T14:15:26Z</time>
      </trkpt>
      <trkpt lat="44.413" lon="1.44585">
        <ele>199.5166</ele>
        <time>2018-05-22T14:15:33Z</time>
      </trkpt>
      <trkpt lat="44.41308" lon="1.44583">
        <ele>197.81668666667</ele>
        <time>2018-05-22T14:15:39Z</time>
      </trkpt>
      <trkpt lat="44.41317" lon="1.4458">
        <ele>201.41679333333</ele>
        <time>2018-05-22T14:15:46Z</time>
      </trkpt>
      <trkpt lat="44.41325" lon="1.4458">
        <ele>201.81682</ele>
        <time>2018-05-22T14:15:52Z</time>
      </trkpt>
      <trkpt lat="44.41333" lon="1.44579">
        <ele>202.11683333333</ele>
        <time>2018-05-22T14:16:00Z</time>
      </trkpt>
      <trkpt lat="44.41342" lon="1.4458">
        <ele>201.3168</ele>
        <time>2018-05-22T14:16:07Z</time>
      </trkpt>
      <trkpt lat="44.4135" lon="1.44581">
        <ele>199.91676666667</ele>
        <time>2018-05-22T14:16:13Z</time>
      </trkpt>
      <trkpt lat="44.41358" lon="1.44582">
        <ele>199.71674</ele>
        <time>2018-05-22T14:16:19Z</time>
      </trkpt>
      <trkpt lat="44.41367" lon="1.44581">
        <ele>198.61677333333</ele>
        <time>2018-05-22T14:16:26Z</time>
      </trkpt>
      <trkpt lat="44.41374" lon="1.44579">
        <ele>198.21683333333</ele>
        <time>2018-05-22T14:16:33Z</time>
      </trkpt>
      <trkpt lat="44.41383" lon="1.44581">
        <ele>196.81676666667</ele>
        <time>2018-05-22T14:16:39Z</time>
      </trkpt>
      <trkpt lat="44.41391" lon="1.44581">
        <ele>199.21677333333</ele>
        <time>2018-05-22T14:16:47Z</time>
      </trkpt>
      <trkpt lat="44.41399" lon="1.44584">
        <ele>194.91662666667</ele>
        <time>2018-05-22T14:16:54Z</time>
      </trkpt>
      <trkpt lat="44.41408" lon="1.44584">
        <ele>195.91663333333</ele>
        <time>2018-05-22T14:17:02Z</time>
      </trkpt>
      <trkpt lat="44.41416" lon="1.44586">
        <ele>197.41658</ele>
        <time>2018-05-22T14:17:09Z</time>
      </trkpt>
      <trkpt lat="44.41424" lon="1.44584">
        <ele>198.31662666667</ele>
        <time>2018-05-22T14:17:15Z</time>
      </trkpt>
      <trkpt lat="44.41432" lon="1.44584">
        <ele>197.31663333333</ele>
        <time>2018-05-22T14:17:21Z</time>
      </trkpt>
      <trkpt lat="44.4144" lon="1.44587">
        <ele>192.01652666667</ele>
        <time>2018-05-22T14:17:27Z</time>
      </trkpt>
      <trkpt lat="44.41449" lon="1.44588">
        <ele>193.61648</ele>
        <time>2018-05-22T14:17:35Z</time>
      </trkpt>
      <trkpt lat="44.41457" lon="1.44592">
        <ele>195.21630666667</ele>
        <time>2018-05-22T14:17:42Z</time>
      </trkpt>
      <trkpt lat="44.41465" lon="1.44596">
        <ele>195.91616</ele>
        <time>2018-05-22T14:17:53Z</time>
      </trkpt>
      <trkpt lat="44.41474" lon="1.44594">
        <ele>194.71624666667</ele>
        <time>2018-05-22T14:18:02Z</time>
      </trkpt>
      <trkpt lat="44.41482" lon="1.44595">
        <ele>191.91619333333</ele>
        <time>2018-05-22T14:18:10Z</time>
      </trkpt>
      <trkpt lat="44.41491" lon="1.44596">
        <ele>187.71614666667</ele>
        <time>2018-05-22T14:18:18Z</time>
      </trkpt>
      <trkpt lat="44.41499" lon="1.44597">
        <ele>186.81614</ele>
        <time>2018-05-22T14:18:26Z</time>
      </trkpt>
      <trkpt lat="44.41508" lon="1.44593">
        <ele>186.4163</ele>
        <time>2018-05-22T14:18:34Z</time>
      </trkpt>
      <trkpt lat="44.41516" lon="1.44591">
        <ele>186.91634666667</ele>
        <time>2018-05-22T14:18:43Z</time>
      </trkpt>
      <trkpt lat="44.41525" lon="1.44591">
        <ele>184.41635333333</ele>
        <time>2018-05-22T14:18:51Z</time>
      </trkpt>
      <trkpt lat="44.41533" lon="1.44589">
        <ele>184.41642666667</ele>
        <time>2018-05-22T14:18:58Z</time>
      </trkpt>
      <trkpt lat="44.41542" lon="1.44588">
        <ele>185.71646666667</ele>
        <time>2018-05-22T14:19:06Z</time>
      </trkpt>
      <trkpt lat="44.41549" lon="1.44591">
        <ele>181.91636666667</ele>
        <time>2018-05-22T14:19:12Z</time>
      </trkpt>
      <trkpt lat="44.41558" lon="1.44591">
        <ele>183.41635333333</ele>
        <time>2018-05-22T14:19:19Z</time>
      </trkpt>
      <trkpt lat="44.41566" lon="1.4459">
        <ele>183.21640666667</ele>
        <time>2018-05-22T14:19:27Z</time>
      </trkpt>
      <trkpt lat="44.41574" lon="1.44589">
        <ele>183.61644666667</ele>
        <time>2018-05-22T14:19:34Z</time>
      </trkpt>
      <trkpt lat="44.41583" lon="1.44585">
        <ele>185.2166</ele>
        <time>2018-05-22T14:19:42Z</time>
      </trkpt>
      <trkpt lat="44.41591" lon="1.4458">
        <ele>187.71678666667</ele>
        <time>2018-05-22T14:19:49Z</time>
      </trkpt>
      <trkpt lat="44.41598" lon="1.44575">
        <ele>189.91700666667</ele>
        <time>2018-05-22T14:19:56Z</time>
      </trkpt>
      <trkpt lat="44.41605" lon="1.4457">
        <ele>190.51720666667</ele>
        <time>2018-05-22T14:20:03Z</time>
      </trkpt>
      <trkpt lat="44.41613" lon="1.44572">
        <ele>185.91710666667</ele>
        <time>2018-05-22T14:20:11Z</time>
      </trkpt>
      <trkpt lat="44.41622" lon="1.44572">
        <ele>188.01712</ele>
        <time>2018-05-22T14:20:20Z</time>
      </trkpt>
      <trkpt lat="44.4163" lon="1.44573">
        <ele>190.11709333333</ele>
        <time>2018-05-22T14:20:29Z</time>
      </trkpt>
      <trkpt lat="44.41638" lon="1.44578">
        <ele>188.81686666667</ele>
        <time>2018-05-22T14:20:36Z</time>
      </trkpt>
      <trkpt lat="44.41646" lon="1.44583">
        <ele>189.01667333333</ele>
        <time>2018-05-22T14:20:42Z</time>
      </trkpt>
      <trkpt lat="44.41655" lon="1.44586">
        <ele>189.61655333333</ele>
        <time>2018-05-22T14:20:49Z</time>
      </trkpt>
      <trkpt lat="44.41663" lon="1.44582">
        <ele>185.71670666667</ele>
        <time>2018-05-22T14:20:57Z</time>
      </trkpt>
      <trkpt lat="44.41668" lon="1.44573">
        <ele>185.21706666667</ele>
        <time>2018-05-22T14:21:05Z</time>
      </trkpt>
      <trkpt lat="44.41674" lon="1.44564">
        <ele>187.91742666667</ele>
        <time>2018-05-22T14:21:14Z</time>
      </trkpt>
      <trkpt lat="44.41679" lon="1.44554">
        <ele>191.01784666667</ele>
        <time>2018-05-22T14:21:21Z</time>
      </trkpt>
      <trkpt lat="44.41687" lon="1.44549">
        <ele>195.51804666667</ele>
        <time>2018-05-22T14:21:29Z</time>
      </trkpt>
      <trkpt lat="44.41694" lon="1.44545">
        <ele>195.61822</ele>
        <time>2018-05-22T14:21:37Z</time>
      </trkpt>
      <trkpt lat="44.41703" lon="1.44542">
        <ele>191.11832666667</ele>
        <time>2018-05-22T14:21:44Z</time>
      </trkpt>
      <trkpt lat="44.41711" lon="1.44536">
        <ele>188.71855333333</ele>
        <time>2018-05-22T14:21:52Z</time>
      </trkpt>
      <trkpt lat="44.41718" lon="1.4453">
        <ele>188.61880666667</ele>
        <time>2018-05-22T14:22:00Z</time>
      </trkpt>
      <trkpt lat="44.41725" lon="1.44523">
        <ele>189.01908666667</ele>
        <time>2018-05-22T14:22:08Z</time>
      </trkpt>
      <trkpt lat="44.41732" lon="1.44518">
        <ele>190.8193</ele>
        <time>2018-05-22T14:22:15Z</time>
      </trkpt>
      <trkpt lat="44.4174" lon="1.44513">
        <ele>190.91948</ele>
        <time>2018-05-22T14:22:21Z</time>
      </trkpt>
      <trkpt lat="44.41748" lon="1.44509">
        <ele>190.21963333333</ele>
        <time>2018-05-22T14:22:29Z</time>
      </trkpt>
      <trkpt lat="44.41756" lon="1.44509">
        <ele>189.71962666667</ele>
        <time>2018-05-22T14:22:36Z</time>
      </trkpt>
      <trkpt lat="44.41764" lon="1.44508">
        <ele>188.4197</ele>
        <time>2018-05-22T14:22:43Z</time>
      </trkpt>
      <trkpt lat="44.41773" lon="1.44506">
        <ele>183.21978</ele>
        <time>2018-05-22T14:22:50Z</time>
      </trkpt>
      <trkpt lat="44.4178" lon="1.44498">
        <ele>179.32007333333</ele>
        <time>2018-05-22T14:22:59Z</time>
      </trkpt>
      <trkpt lat="44.41785" lon="1.44489">
        <ele>179.82043333333</ele>
        <time>2018-05-22T14:23:06Z</time>
      </trkpt>
      <trkpt lat="44.41793" lon="1.44484">
        <ele>180.62064</ele>
        <time>2018-05-22T14:23:14Z</time>
      </trkpt>
      <trkpt lat="44.41799" lon="1.44477">
        <ele>180.92091333333</ele>
        <time>2018-05-22T14:23:21Z</time>
      </trkpt>
      <trkpt lat="44.41806" lon="1.44471">
        <ele>181.32117333333</ele>
        <time>2018-05-22T14:23:29Z</time>
      </trkpt>
      <trkpt lat="44.41814" lon="1.44464">
        <ele>182.12142666667</ele>
        <time>2018-05-22T14:23:38Z</time>
      </trkpt>
      <trkpt lat="44.41822" lon="1.44462">
        <ele>183.52152</ele>
        <time>2018-05-22T14:23:46Z</time>
      </trkpt>
      <trkpt lat="44.4183" lon="1.44461">
        <ele>184.52157333333</ele>
        <time>2018-05-22T14:23:55Z</time>
      </trkpt>
      <trkpt lat="44.41838" lon="1.44457">
        <ele>184.72172666667</ele>
        <time>2018-05-22T14:24:04Z</time>
      </trkpt>
      <trkpt lat="44.41847" lon="1.44458">
        <ele>189.72169333333</ele>
        <time>2018-05-22T14:24:12Z</time>
      </trkpt>
      <trkpt lat="44.41856" lon="1.44456">
        <ele>192.22177333333</ele>
        <time>2018-05-22T14:24:21Z</time>
      </trkpt>
      <trkpt lat="44.41864" lon="1.44458">
        <ele>189.82169333333</ele>
        <time>2018-05-22T14:24:28Z</time>
      </trkpt>
      <trkpt lat="44.41873" lon="1.44458">
        <ele>189.02168666667</ele>
        <time>2018-05-22T14:24:36Z</time>
      </trkpt>
      <trkpt lat="44.41881" lon="1.44462">
        <ele>191.12152</ele>
        <time>2018-05-22T14:24:54Z</time>
      </trkpt>
      <trkpt lat="44.41889" lon="1.44461">
        <ele>193.72154666667</ele>
        <time>2018-05-22T14:25:08Z</time>
      </trkpt>
      <trkpt lat="44.41898" lon="1.4446">
        <ele>196.52160666667</ele>
        <time>2018-05-22T14:25:19Z</time>
      </trkpt>
      <trkpt lat="44.41906" lon="1.44459">
        <ele>195.82162666667</ele>
        <time>2018-05-22T14:25:29Z</time>
      </trkpt>
      <trkpt lat="44.41914" lon="1.44456">
        <ele>194.92177333333</ele>
        <time>2018-05-22T14:25:39Z</time>
      </trkpt>
      <trkpt lat="44.41921" lon="1.44448">
        <ele>190.72206666667</ele>
        <time>2018-05-22T14:25:51Z</time>
      </trkpt>
      <trkpt lat="44.41929" lon="1.44441">
        <ele>185.72234666667</ele>
        <time>2018-05-22T14:26:02Z</time>
      </trkpt>
      <trkpt lat="44.41933" lon="1.44432">
        <ele>185.72274</ele>
        <time>2018-05-22T14:26:12Z</time>
      </trkpt>
      <trkpt lat="44.41942" lon="1.4443">
        <ele>187.22280666667</ele>
        <time>2018-05-22T14:26:29Z</time>
      </trkpt>
      <trkpt lat="44.4195" lon="1.44426">
        <ele>186.22297333333</ele>
        <time>2018-05-22T14:26:39Z</time>
      </trkpt>
      <trkpt lat="44.41957" lon="1.44421">
        <ele>184.52316666667</ele>
        <time>2018-05-22T14:26:59Z</time>
      </trkpt>
      <trkpt lat="44.41965" lon="1.44418">
        <ele>183.7233</ele>
        <time>2018-05-22T14:27:13Z</time>
      </trkpt>
      <trkpt lat="44.41973" lon="1.4442">
        <ele>181.72319333333</ele>
        <time>2018-05-22T14:27:23Z</time>
      </trkpt>
      <trkpt lat="44.41982" lon="1.44417">
        <ele>179.32333333333</ele>
        <time>2018-05-22T14:27:32Z</time>
      </trkpt>
      <trkpt lat="44.4199" lon="1.44412">
        <ele>171.02353333333</ele>
        <time>2018-05-22T14:27:42Z</time>
      </trkpt>
      <trkpt lat="44.41998" lon="1.44409">
        <ele>165.32363333333</ele>
        <time>2018-05-22T14:27:50Z</time>
      </trkpt>
      <trkpt lat="44.42006" lon="1.44409">
        <ele>168.32365333333</ele>
        <time>2018-05-22T14:28:08Z</time>
      </trkpt>
      <trkpt lat="44.42015" lon="1.44406">
        <ele>164.72376</ele>
        <time>2018-05-22T14:28:17Z</time>
      </trkpt>
      <trkpt lat="44.42022" lon="1.44402">
        <ele>163.22393333333</ele>
        <time>2018-05-22T14:28:26Z</time>
      </trkpt>
      <trkpt lat="44.4203" lon="1.44397">
        <ele>165.52412</ele>
        <time>2018-05-22T14:28:34Z</time>
      </trkpt>
      <trkpt lat="44.42037" lon="1.44391">
        <ele>167.32436</ele>
        <time>2018-05-22T14:28:43Z</time>
      </trkpt>
      <trkpt lat="44.42046" lon="1.44387">
        <ele>163.12450666667</ele>
        <time>2018-05-22T14:28:52Z</time>
      </trkpt>
      <trkpt lat="44.42055" lon="1.44386">
        <ele>165.12454666667</ele>
        <time>2018-05-22T14:29:04Z</time>
      </trkpt>
      <trkpt lat="44.42062" lon="1.44392">
        <ele>160.52431333333</ele>
        <time>2018-05-22T14:29:16Z</time>
      </trkpt>
      <trkpt lat="44.42071" lon="1.44394">
        <ele>155.12424</ele>
        <time>2018-05-22T14:29:28Z</time>
      </trkpt>
      <trkpt lat="44.42079" lon="1.44397">
        <ele>150.72414</ele>
        <time>2018-05-22T14:29:40Z</time>
      </trkpt>
      <trkpt lat="44.42087" lon="1.44401">
        <ele>148.22396666667</ele>
        <time>2018-05-22T14:29:49Z</time>
      </trkpt>
      <trkpt lat="44.42094" lon="1.44407">
        <ele>146.42370666667</ele>
        <time>2018-05-22T14:30:09Z</time>
      </trkpt>
      <trkpt lat="44.42102" lon="1.4441">
        <ele>146.92361333333</ele>
        <time>2018-05-22T14:30:50Z</time>
      </trkpt>
      <trkpt lat="44.42111" lon="1.44412">
        <ele>147.12352666667</ele>
        <time>2018-05-22T14:30:59Z</time>
      </trkpt>
      <trkpt lat="44.42119" lon="1.44413">
        <ele>149.62347333333</ele>
        <time>2018-05-22T14:31:09Z</time>
      </trkpt>
      <trkpt lat="44.42127" lon="1.44412">
        <ele>148.92352</ele>
        <time>2018-05-22T14:31:21Z</time>
      </trkpt>
      <trkpt lat="44.42135" lon="1.4441">
        <ele>147.62359333333</ele>
        <time>2018-05-22T14:31:32Z</time>
      </trkpt>
      <trkpt lat="44.42144" lon="1.44411">
        <ele>143.92356666667</ele>
        <time>2018-05-22T14:31:43Z</time>
      </trkpt>
      <trkpt lat="44.42152" lon="1.44414">
        <ele>140.12346</ele>
        <time>2018-05-22T14:31:52Z</time>
      </trkpt>
      <trkpt lat="44.4216" lon="1.44417">
        <ele>137.52334</ele>
        <time>2018-05-22T14:32:01Z</time>
      </trkpt>
      <trkpt lat="44.42168" lon="1.44421">
        <ele>137.62316</ele>
        <time>2018-05-22T14:32:10Z</time>
      </trkpt>
      <trkpt lat="44.42176" lon="1.44424">
        <ele>134.82304</ele>
        <time>2018-05-22T14:32:25Z</time>
      </trkpt>
      <trkpt lat="44.42185" lon="1.44425">
        <ele>132.22300666667</ele>
        <time>2018-05-22T14:32:44Z</time>
      </trkpt>
      <trkpt lat="44.42194" lon="1.44428">
        <ele>126.82288</ele>
        <time>2018-05-22T14:32:55Z</time>
      </trkpt>
      <trkpt lat="44.42202" lon="1.44428">
        <ele>123.52288</ele>
        <time>2018-05-22T14:33:05Z</time>
      </trkpt>
      <trkpt lat="44.4221" lon="1.44433">
        <ele>116.72268666667</ele>
        <time>2018-05-22T14:33:16Z</time>
      </trkpt>
      <trkpt lat="44.42219" lon="1.44432">
        <ele>114.52273333333</ele>
        <time>2018-05-22T14:33:26Z</time>
      </trkpt>
      <trkpt lat="44.42227" lon="1.44431">
        <ele>115.92276666667</ele>
        <time>2018-05-22T14:33:37Z</time>
      </trkpt>
      <trkpt lat="44.42235" lon="1.44434">
        <ele>115.62263333333</ele>
        <time>2018-05-22T14:33:45Z</time>
      </trkpt>
      <trkpt lat="44.42239" lon="1.44444">
        <ele>114.12226</ele>
        <time>2018-05-22T14:33:55Z</time>
      </trkpt>
      <trkpt lat="44.42242" lon="1.44455">
        <ele>111.72180666667</ele>
        <time>2018-05-22T14:34:04Z</time>
      </trkpt>
      <trkpt lat="44.42249" lon="1.4446">
        <ele>107.22159333333</ele>
        <time>2018-05-22T14:34:22Z</time>
      </trkpt>
      <trkpt lat="44.42258" lon="1.44456">
        <ele>106.02175333333</ele>
        <time>2018-05-22T14:34:32Z</time>
      </trkpt>
      <trkpt lat="44.42266" lon="1.44453">
        <ele>104.92189333333</ele>
        <time>2018-05-22T14:34:43Z</time>
      </trkpt>
      <trkpt lat="44.42267" lon="1.44465">
        <ele>98.921406666667</ele>
        <time>2018-05-22T14:34:57Z</time>
      </trkpt>
      <trkpt lat="44.42273" lon="1.44473">
        <ele>95.121066666667</ele>
        <time>2018-05-22T14:35:13Z</time>
      </trkpt>
      <trkpt lat="44.42272" lon="1.44485">
        <ele>99.120586666667</ele>
        <time>2018-05-22T14:35:37Z</time>
      </trkpt>
      <trkpt lat="44.42277" lon="1.44496">
        <ele>99.52018</ele>
        <time>2018-05-22T14:36:25Z</time>
      </trkpt>
      <trkpt lat="44.42283" lon="1.44505">
        <ele>104.81982</ele>
        <time>2018-05-22T14:36:57Z</time>
      </trkpt>
      <trkpt lat="44.42285" lon="1.44512">
        <ele>103.71952</ele>
        <time>2018-05-22T14:37:25Z</time>
      </trkpt>
      <trkpt lat="44.42283" lon="1.44508">
        <ele>88.619686666667</ele>
        <time>2018-05-22T14:37:49Z</time>
      </trkpt>
      <trkpt lat="44.42294" lon="1.44522">
        <ele>81.71912</ele>
        <time>2018-05-22T14:37:53Z</time>
      </trkpt>
      <trkpt lat="44.42287" lon="1.44513">
        <ele>96.919473333333</ele>
        <time>2018-05-22T14:38:14Z</time>
      </trkpt>
      <trkpt lat="44.42278" lon="1.44513">
        <ele>98.71948</ele>
        <time>2018-05-22T14:38:18Z</time>
      </trkpt>
      <trkpt lat="44.4228" lon="1.4451">
        <ele>101.01961333333</ele>
        <time>2018-05-22T14:39:22Z</time>
      </trkpt>
      <trkpt lat="44.42296" lon="1.44522">
        <ele>101.11914</ele>
        <time>2018-05-22T14:39:26Z</time>
      </trkpt>
      <trkpt lat="44.42291" lon="1.44511">
        <ele>101.21956</ele>
        <time>2018-05-22T14:39:32Z</time>
      </trkpt>
      <trkpt lat="44.42284" lon="1.44511">
        <ele>101.11957333333</ele>
        <time>2018-05-22T14:39:45Z</time>
      </trkpt>
      <trkpt lat="44.4228" lon="1.44522">
        <ele>99.51914</ele>
        <time>2018-05-22T14:39:57Z</time>
      </trkpt>
      <trkpt lat="44.42272" lon="1.44527">
        <ele>98.018913333333</ele>
        <time>2018-05-22T14:40:08Z</time>
      </trkpt>
      <trkpt lat="44.42265" lon="1.44523">
        <ele>93.719073333333</ele>
        <time>2018-05-22T14:40:24Z</time>
      </trkpt>
      <trkpt lat="44.42262" lon="1.44515">
        <ele>79.419393333333</ele>
        <time>2018-05-22T14:40:47Z</time>
      </trkpt>
      <trkpt lat="44.4226" lon="1.44528">
        <ele>91.018873333333</ele>
        <time>2018-05-22T14:40:51Z</time>
      </trkpt>
      <trkpt lat="44.42267" lon="1.44534">
        <ele>78.218653333333</ele>
        <time>2018-05-22T14:41:12Z</time>
      </trkpt>
      <trkpt lat="44.42262" lon="1.44543">
        <ele>109.41828</ele>
        <time>2018-05-22T14:42:04Z</time>
      </trkpt>
      <trkpt lat="44.4227" lon="1.44538">
        <ele>90.318473333333</ele>
        <time>2018-05-22T14:42:46Z</time>
      </trkpt>
      <trkpt lat="44.42272" lon="1.4455">
        <ele>105.11800666667</ele>
        <time>2018-05-22T14:43:52Z</time>
      </trkpt>
      <trkpt lat="44.4227" lon="1.44562">
        <ele>90.517526666667</ele>
        <time>2018-05-22T14:44:08Z</time>
      </trkpt>
      <trkpt lat="44.42271" lon="1.44574">
        <ele>98.517053333333</ele>
        <time>2018-05-22T14:44:18Z</time>
      </trkpt>
      <trkpt lat="44.4227" lon="1.44586">
        <ele>105.51656666667</ele>
        <time>2018-05-22T14:44:31Z</time>
      </trkpt>
      <trkpt lat="44.42278" lon="1.44592">
        <ele>86.716326666667</ele>
        <time>2018-05-22T14:45:56Z</time>
      </trkpt>
      <trkpt lat="44.42284" lon="1.44585">
        <ele>81.1166</ele>
        <time>2018-05-22T14:46:01Z</time>
      </trkpt>
      <trkpt lat="44.42289" lon="1.44576">
        <ele>76.216966666667</ele>
        <time>2018-05-22T14:46:06Z</time>
      </trkpt>
      <trkpt lat="44.42293" lon="1.44566">
        <ele>72.717366666667</ele>
        <time>2018-05-22T14:46:11Z</time>
      </trkpt>
      <trkpt lat="44.42299" lon="1.44558">
        <ele>74.517666666667</ele>
        <time>2018-05-22T14:46:18Z</time>
      </trkpt>
      <trkpt lat="44.42306" lon="1.44552">
        <ele>89.217913333333</ele>
        <time>2018-05-22T14:46:31Z</time>
      </trkpt>
      <trkpt lat="44.42314" lon="1.44549">
        <ele>89.01804</ele>
        <time>2018-05-22T14:46:39Z</time>
      </trkpt>
      <trkpt lat="44.42321" lon="1.44542">
        <ele>86.718333333333</ele>
        <time>2018-05-22T14:46:47Z</time>
      </trkpt>
      <trkpt lat="44.42328" lon="1.44535">
        <ele>85.218586666667</ele>
        <time>2018-05-22T14:46:55Z</time>
      </trkpt>
      <trkpt lat="44.42336" lon="1.44528">
        <ele>83.018873333333</ele>
        <time>2018-05-22T14:47:01Z</time>
      </trkpt>
      <trkpt lat="44.42341" lon="1.4452">
        <ele>85.519193333333</ele>
        <time>2018-05-22T14:47:10Z</time>
      </trkpt>
      <trkpt lat="44.42346" lon="1.44513">
        <ele>85.41948</ele>
        <time>2018-05-22T14:47:17Z</time>
      </trkpt>
      <trkpt lat="44.42353" lon="1.44506">
        <ele>83.819753333333</ele>
        <time>2018-05-22T14:47:26Z</time>
      </trkpt>
      <trkpt lat="44.42361" lon="1.445">
        <ele>87.519993333333</ele>
        <time>2018-05-22T14:47:35Z</time>
      </trkpt>
      <trkpt lat="44.42367" lon="1.44494">
        <ele>86.520253333333</ele>
        <time>2018-05-22T14:47:42Z</time>
      </trkpt>
      <trkpt lat="44.42372" lon="1.44484">
        <ele>92.220653333333</ele>
        <time>2018-05-22T14:47:50Z</time>
      </trkpt>
      <trkpt lat="44.42376" lon="1.44474">
        <ele>98.721046666667</ele>
        <time>2018-05-22T14:48:00Z</time>
      </trkpt>
      <trkpt lat="44.4238" lon="1.44463">
        <ele>108.02148666667</ele>
        <time>2018-05-22T14:48:09Z</time>
      </trkpt>
      <trkpt lat="44.42386" lon="1.44455">
        <ele>110.82181333333</ele>
        <time>2018-05-22T14:48:18Z</time>
      </trkpt>
      <trkpt lat="44.42394" lon="1.4445">
        <ele>111.022</ele>
        <time>2018-05-22T14:48:27Z</time>
      </trkpt>
      <trkpt lat="44.42401" lon="1.44443">
        <ele>107.72227333333</ele>
        <time>2018-05-22T14:48:35Z</time>
      </trkpt>
      <trkpt lat="44.42409" lon="1.44441">
        <ele>102.72234666667</ele>
        <time>2018-05-22T14:48:44Z</time>
      </trkpt>
      <trkpt lat="44.42416" lon="1.44437">
        <ele>100.72251333333</ele>
        <time>2018-05-22T14:48:52Z</time>
      </trkpt>
      <trkpt lat="44.42423" lon="1.4443">
        <ele>98.622786666667</ele>
        <time>2018-05-22T14:48:59Z</time>
      </trkpt>
      <trkpt lat="44.42431" lon="1.44429">
        <ele>94.32286</ele>
        <time>2018-05-22T14:49:05Z</time>
      </trkpt>
      <trkpt lat="44.42437" lon="1.4442">
        <ele>92.523193333333</ele>
        <time>2018-05-22T14:49:12Z</time>
      </trkpt>
      <trkpt lat="44.42442" lon="1.44411">
        <ele>89.123546666667</ele>
        <time>2018-05-22T14:49:20Z</time>
      </trkpt>
      <trkpt lat="44.42448" lon="1.44405">
        <ele>89.82382</ele>
        <time>2018-05-22T14:49:27Z</time>
      </trkpt>
      <trkpt lat="44.4245" lon="1.44394">
        <ele>89.824253333333</ele>
        <time>2018-05-22T14:49:33Z</time>
      </trkpt>
      <trkpt lat="44.42455" lon="1.44384">
        <ele>92.42464</ele>
        <time>2018-05-22T14:49:42Z</time>
      </trkpt>
      <trkpt lat="44.42461" lon="1.44376">
        <ele>92.224966666667</ele>
        <time>2018-05-22T14:49:51Z</time>
      </trkpt>
      <trkpt lat="44.42468" lon="1.44368">
        <ele>91.925273333333</ele>
        <time>2018-05-22T14:50:00Z</time>
      </trkpt>
      <trkpt lat="44.42472" lon="1.44358">
        <ele>89.625686666667</ele>
        <time>2018-05-22T14:50:08Z</time>
      </trkpt>
      <trkpt lat="44.42476" lon="1.44348">
        <ele>88.52608</ele>
        <time>2018-05-22T14:50:17Z</time>
      </trkpt>
      <trkpt lat="44.4248" lon="1.44338">
        <ele>87.326473333333</ele>
        <time>2018-05-22T14:50:23Z</time>
      </trkpt>
      <trkpt lat="44.42481" lon="1.44327">
        <ele>86.22694</ele>
        <time>2018-05-22T14:50:31Z</time>
      </trkpt>
      <trkpt lat="44.42485" lon="1.44316">
        <ele>87.12736</ele>
        <time>2018-05-22T14:50:40Z</time>
      </trkpt>
      <trkpt lat="44.42491" lon="1.44308">
        <ele>86.527686666667</ele>
        <time>2018-05-22T14:50:48Z</time>
      </trkpt>
      <trkpt lat="44.42495" lon="1.44298">
        <ele>84.7281</ele>
        <time>2018-05-22T14:50:56Z</time>
      </trkpt>
      <trkpt lat="44.42499" lon="1.44287">
        <ele>84.32852</ele>
        <time>2018-05-22T14:51:03Z</time>
      </trkpt>
      <trkpt lat="44.42502" lon="1.44276">
        <ele>84.828953333333</ele>
        <time>2018-05-22T14:51:10Z</time>
      </trkpt>
      <trkpt lat="44.42506" lon="1.44266">
        <ele>84.429373333333</ele>
        <time>2018-05-22T14:51:17Z</time>
      </trkpt>
      <trkpt lat="44.42512" lon="1.44257">
        <ele>83.729706666667</ele>
        <time>2018-05-22T14:51:25Z</time>
      </trkpt>
      <trkpt lat="44.42518" lon="1.4425">
        <ele>79.929986666667</ele>
        <time>2018-05-22T14:51:33Z</time>
      </trkpt>
      <trkpt lat="44.42522" lon="1.4424">
        <ele>80.13042</ele>
        <time>2018-05-22T14:51:39Z</time>
      </trkpt>
      <trkpt lat="44.42525" lon="1.44229">
        <ele>80.430853333333</ele>
        <time>2018-05-22T14:51:46Z</time>
      </trkpt>
      <trkpt lat="44.4253" lon="1.4422">
        <ele>79.531213333333</ele>
        <time>2018-05-22T14:51:54Z</time>
      </trkpt>
      <trkpt lat="44.42535" lon="1.4421">
        <ele>80.031613333333</ele>
        <time>2018-05-22T14:52:03Z</time>
      </trkpt>
      <trkpt lat="44.42541" lon="1.44202">
        <ele>90.431913333333</ele>
        <time>2018-05-22T14:53:41Z</time>
      </trkpt>
      <trkpt lat="44.4254" lon="1.4419">
        <ele>91.0324</ele>
        <time>2018-05-22T14:53:48Z</time>
      </trkpt>
      <trkpt lat="44.4254" lon="1.44178">
        <ele>87.5329</ele>
        <time>2018-05-22T14:53:55Z</time>
      </trkpt>
      <trkpt lat="44.42537" lon="1.44167">
        <ele>80.13332</ele>
        <time>2018-05-22T14:54:02Z</time>
      </trkpt>
      <trkpt lat="44.42534" lon="1.44156">
        <ele>77.533773333333</ele>
        <time>2018-05-22T14:54:09Z</time>
      </trkpt>
      <trkpt lat="44.42532" lon="1.44145">
        <ele>75.93422</ele>
        <time>2018-05-22T14:54:14Z</time>
      </trkpt>
      <trkpt lat="44.42529" lon="1.44134">
        <ele>72.434653333333</ele>
        <time>2018-05-22T14:54:22Z</time>
      </trkpt>
      <trkpt lat="44.42521" lon="1.44127">
        <ele>70.634913333333</ele>
        <time>2018-05-22T14:54:33Z</time>
      </trkpt>
      <trkpt lat="44.42515" lon="1.44122">
        <ele>69.235106666667</ele>
        <time>2018-05-22T14:54:41Z</time>
      </trkpt>
      <trkpt lat="44.42508" lon="1.44118">
        <ele>73.635266666667</ele>
        <time>2018-05-22T14:54:46Z</time>
      </trkpt>
      <trkpt lat="44.42501" lon="1.44113">
        <ele>74.135486666667</ele>
        <time>2018-05-22T14:54:52Z</time>
      </trkpt>
      <trkpt lat="44.42495" lon="1.44106">
        <ele>75.03578</ele>
        <time>2018-05-22T14:54:58Z</time>
      </trkpt>
      <trkpt lat="44.42487" lon="1.44102">
        <ele>75.735933333333</ele>
        <time>2018-05-22T14:55:02Z</time>
      </trkpt>
      <trkpt lat="44.4248" lon="1.44099">
        <ele>76.73606</ele>
        <time>2018-05-22T14:55:07Z</time>
      </trkpt>
      <trkpt lat="44.42472" lon="1.44095">
        <ele>76.436206666667</ele>
        <time>2018-05-22T14:55:13Z</time>
      </trkpt>
      <trkpt lat="44.42465" lon="1.44092">
        <ele>76.63634</ele>
        <time>2018-05-22T14:55:19Z</time>
      </trkpt>
      <trkpt lat="44.42458" lon="1.44087">
        <ele>77.53654</ele>
        <time>2018-05-22T14:55:27Z</time>
      </trkpt>
      <trkpt lat="44.4245" lon="1.44081">
        <ele>78.73678</ele>
        <time>2018-05-22T14:55:35Z</time>
      </trkpt>
      <trkpt lat="44.42443" lon="1.44073">
        <ele>78.23708</ele>
        <time>2018-05-22T14:55:45Z</time>
      </trkpt>
      <trkpt lat="44.42436" lon="1.44067">
        <ele>79.337306666667</ele>
        <time>2018-05-22T14:55:51Z</time>
      </trkpt>
      <trkpt lat="44.42427" lon="1.44067">
        <ele>78.33734</ele>
        <time>2018-05-22T14:55:57Z</time>
      </trkpt>
      <trkpt lat="44.42419" lon="1.44062">
        <ele>74.437526666667</ele>
        <time>2018-05-22T14:56:02Z</time>
      </trkpt>
      <trkpt lat="44.42411" lon="1.44059">
        <ele>74.037653333333</ele>
        <time>2018-05-22T14:56:10Z</time>
      </trkpt>
      <trkpt lat="44.42401" lon="1.44055">
        <ele>75.537786666667</ele>
        <time>2018-05-22T14:56:15Z</time>
      </trkpt>
      <trkpt lat="44.42394" lon="1.44049">
        <ele>78.83804</ele>
        <time>2018-05-22T14:56:24Z</time>
      </trkpt>
      <trkpt lat="44.42385" lon="1.44046">
        <ele>82.338166666667</ele>
        <time>2018-05-22T14:56:31Z</time>
      </trkpt>
      <trkpt lat="44.42378" lon="1.44042">
        <ele>83.538326666667</ele>
        <time>2018-05-22T14:56:38Z</time>
      </trkpt>
      <trkpt lat="44.42371" lon="1.44038">
        <ele>84.338466666667</ele>
        <time>2018-05-22T14:56:43Z</time>
      </trkpt>
      <trkpt lat="44.42363" lon="1.44035">
        <ele>85.238606666667</ele>
        <time>2018-05-22T14:56:49Z</time>
      </trkpt>
      <trkpt lat="44.42356" lon="1.4403">
        <ele>86.13882</ele>
        <time>2018-05-22T14:56:56Z</time>
      </trkpt>
      <trkpt lat="44.42348" lon="1.44023">
        <ele>83.339093333333</ele>
        <time>2018-05-22T14:57:05Z</time>
      </trkpt>
      <trkpt lat="44.4234" lon="1.44018">
        <ele>87.339273333333</ele>
        <time>2018-05-22T14:57:14Z</time>
      </trkpt>
      <trkpt lat="44.42332" lon="1.44013">
        <ele>90.43948</ele>
        <time>2018-05-22T14:57:22Z</time>
      </trkpt>
      <trkpt lat="44.42324" lon="1.4401">
        <ele>93.839606666667</ele>
        <time>2018-05-22T14:57:32Z</time>
      </trkpt>
      <trkpt lat="44.42317" lon="1.44003">
        <ele>93.939866666667</ele>
        <time>2018-05-22T14:57:37Z</time>
      </trkpt>
      <trkpt lat="44.42311" lon="1.43996">
        <ele>93.440153333333</ele>
        <time>2018-05-22T14:57:44Z</time>
      </trkpt>
      <trkpt lat="44.42304" lon="1.43988">
        <ele>93.140466666667</ele>
        <time>2018-05-22T14:57:53Z</time>
      </trkpt>
      <trkpt lat="44.42296" lon="1.43984">
        <ele>91.340646666667</ele>
        <time>2018-05-22T14:57:59Z</time>
      </trkpt>
      <trkpt lat="44.42288" lon="1.43978">
        <ele>89.740866666667</ele>
        <time>2018-05-22T14:58:05Z</time>
      </trkpt>
      <trkpt lat="44.42281" lon="1.43971">
        <ele>86.041153333333</ele>
        <time>2018-05-22T14:58:11Z</time>
      </trkpt>
      <trkpt lat="44.42273" lon="1.43966">
        <ele>81.241346666667</ele>
        <time>2018-05-22T14:58:19Z</time>
      </trkpt>
      <trkpt lat="44.42265" lon="1.43962">
        <ele>79.541513333333</ele>
        <time>2018-05-22T14:58:27Z</time>
      </trkpt>
      <trkpt lat="44.42257" lon="1.43957">
        <ele>77.441733333333</ele>
        <time>2018-05-22T14:58:35Z</time>
      </trkpt>
      <trkpt lat="44.42249" lon="1.43955">
        <ele>73.64182</ele>
        <time>2018-05-22T14:58:43Z</time>
      </trkpt>
      <trkpt lat="44.42241" lon="1.43961">
        <ele>64.54158</ele>
        <time>2018-05-22T14:58:52Z</time>
      </trkpt>
      <trkpt lat="44.42234" lon="1.43963">
        <ele>57.041473333333</ele>
        <time>2018-05-22T14:59:03Z</time>
      </trkpt>
      <trkpt lat="44.42226" lon="1.43958">
        <ele>64.441693333333</ele>
        <time>2018-05-22T14:59:10Z</time>
      </trkpt>
      <trkpt lat="44.42217" lon="1.43954">
        <ele>73.041833333333</ele>
        <time>2018-05-22T14:59:14Z</time>
      </trkpt>
      <trkpt lat="44.42209" lon="1.43947">
        <ele>78.842113333333</ele>
        <time>2018-05-22T14:59:18Z</time>
      </trkpt>
      <trkpt lat="44.42201" lon="1.43946">
        <ele>81.142173333333</ele>
        <time>2018-05-22T14:59:28Z</time>
      </trkpt>
      <trkpt lat="44.42193" lon="1.43948">
        <ele>78.942086666667</ele>
        <time>2018-05-22T14:59:33Z</time>
      </trkpt>
      <trkpt lat="44.42185" lon="1.43947">
        <ele>81.742113333333</ele>
        <time>2018-05-22T14:59:41Z</time>
      </trkpt>
      <trkpt lat="44.42177" lon="1.43944">
        <ele>84.34224</ele>
        <time>2018-05-22T14:59:48Z</time>
      </trkpt>
      <trkpt lat="44.42168" lon="1.43943">
        <ele>84.642286666667</ele>
        <time>2018-05-22T14:59:57Z</time>
      </trkpt>
      <trkpt lat="44.42161" lon="1.43937">
        <ele>85.94252</ele>
        <time>2018-05-22T15:00:04Z</time>
      </trkpt>
      <trkpt lat="44.42161" lon="1.43925">
        <ele>90.143006666667</ele>
        <time>2018-05-22T15:00:08Z</time>
      </trkpt>
      <trkpt lat="44.4216" lon="1.43913">
        <ele>83.7435</ele>
        <time>2018-05-22T15:00:19Z</time>
      </trkpt>
      <trkpt lat="44.42151" lon="1.4391">
        <ele>83.443613333333</ele>
        <time>2018-05-22T15:00:28Z</time>
      </trkpt>
      <trkpt lat="44.42143" lon="1.43911">
        <ele>85.943553333333</ele>
        <time>2018-05-22T15:00:36Z</time>
      </trkpt>
      <trkpt lat="44.42134" lon="1.43911">
        <ele>85.94356</ele>
        <time>2018-05-22T15:00:45Z</time>
      </trkpt>
      <trkpt lat="44.42126" lon="1.43913">
        <ele>86.14348</ele>
        <time>2018-05-22T15:00:54Z</time>
      </trkpt>
      <trkpt lat="44.42118" lon="1.4391">
        <ele>85.043593333333</ele>
        <time>2018-05-22T15:01:01Z</time>
      </trkpt>
      <trkpt lat="44.42109" lon="1.43909">
        <ele>83.343646666667</ele>
        <time>2018-05-22T15:01:09Z</time>
      </trkpt>
      <trkpt lat="44.42101" lon="1.4391">
        <ele>82.843606666667</ele>
        <time>2018-05-22T15:01:16Z</time>
      </trkpt>
      <trkpt lat="44.42092" lon="1.43912">
        <ele>82.943526666667</ele>
        <time>2018-05-22T15:01:23Z</time>
      </trkpt>
      <trkpt lat="44.42085" lon="1.43909">
        <ele>80.843633333333</ele>
        <time>2018-05-22T15:01:29Z</time>
      </trkpt>
      <trkpt lat="44.42076" lon="1.43908">
        <ele>80.34368</ele>
        <time>2018-05-22T15:01:37Z</time>
      </trkpt>
      <trkpt lat="44.42067" lon="1.43907">
        <ele>78.443733333333</ele>
        <time>2018-05-22T15:01:45Z</time>
      </trkpt>
      <trkpt lat="44.42059" lon="1.4391">
        <ele>78.643606666667</ele>
        <time>2018-05-22T15:01:53Z</time>
      </trkpt>
      <trkpt lat="44.4205" lon="1.4391">
        <ele>77.343593333333</ele>
        <time>2018-05-22T15:01:59Z</time>
      </trkpt>
      <trkpt lat="44.42041" lon="1.4391">
        <ele>76.943593333333</ele>
        <time>2018-05-22T15:02:07Z</time>
      </trkpt>
      <trkpt lat="44.42032" lon="1.4391">
        <ele>77.043606666667</ele>
        <time>2018-05-22T15:02:14Z</time>
      </trkpt>
      <trkpt lat="44.42024" lon="1.43909">
        <ele>72.94366</ele>
        <time>2018-05-22T15:02:22Z</time>
      </trkpt>
      <trkpt lat="44.42015" lon="1.43909">
        <ele>71.14366</ele>
        <time>2018-05-22T15:02:30Z</time>
      </trkpt>
      <trkpt lat="44.42007" lon="1.43911">
        <ele>70.543566666667</ele>
        <time>2018-05-22T15:02:38Z</time>
      </trkpt>
      <trkpt lat="44.41998" lon="1.43913">
        <ele>68.94348</ele>
        <time>2018-05-22T15:02:47Z</time>
      </trkpt>
      <trkpt lat="44.4199" lon="1.43909">
        <ele>69.543633333333</ele>
        <time>2018-05-22T15:02:53Z</time>
      </trkpt>
      <trkpt lat="44.41981" lon="1.43906">
        <ele>77.74376</ele>
        <time>2018-05-22T15:03:29Z</time>
      </trkpt>
      <trkpt lat="44.41973" lon="1.43903">
        <ele>82.1439</ele>
        <time>2018-05-22T15:03:37Z</time>
      </trkpt>
      <trkpt lat="44.41964" lon="1.43901">
        <ele>81.14396</ele>
        <time>2018-05-22T15:03:44Z</time>
      </trkpt>
      <trkpt lat="44.41956" lon="1.43903">
        <ele>78.943886666667</ele>
        <time>2018-05-22T15:03:51Z</time>
      </trkpt>
      <trkpt lat="44.41948" lon="1.43904">
        <ele>80.843833333333</ele>
        <time>2018-05-22T15:03:57Z</time>
      </trkpt>
      <trkpt lat="44.4194" lon="1.43905">
        <ele>81.543786666667</ele>
        <time>2018-05-22T15:04:05Z</time>
      </trkpt>
      <trkpt lat="44.41932" lon="1.43909">
        <ele>84.343646666667</ele>
        <time>2018-05-22T15:04:13Z</time>
      </trkpt>
      <trkpt lat="44.41924" lon="1.43914">
        <ele>88.84346</ele>
        <time>2018-05-22T15:04:25Z</time>
      </trkpt>
      <trkpt lat="44.41917" lon="1.4392">
        <ele>91.143213333333</ele>
        <time>2018-05-22T15:04:35Z</time>
      </trkpt>
      <trkpt lat="44.41908" lon="1.43924">
        <ele>91.24304</ele>
        <time>2018-05-22T15:04:43Z</time>
      </trkpt>
      <trkpt lat="44.41901" lon="1.43923">
        <ele>91.1431</ele>
        <time>2018-05-22T15:04:48Z</time>
      </trkpt>
      <trkpt lat="44.41893" lon="1.4392">
        <ele>85.243186666667</ele>
        <time>2018-05-22T15:05:09Z</time>
      </trkpt>
      <trkpt lat="44.41888" lon="1.4391">
        <ele>76.94362</ele>
        <time>2018-05-22T15:05:20Z</time>
      </trkpt>
      <trkpt lat="44.41887" lon="1.43897">
        <ele>75.144106666667</ele>
        <time>2018-05-22T15:05:41Z</time>
      </trkpt>
      <trkpt lat="44.41882" lon="1.43887">
        <ele>75.644526666667</ele>
        <time>2018-05-22T15:05:52Z</time>
      </trkpt>
      <trkpt lat="44.41882" lon="1.43878">
        <ele>90.8449</ele>
        <time>2018-05-22T15:07:44Z</time>
      </trkpt>
      <trkpt lat="44.41882" lon="1.43878">
        <ele>90.8449</ele>
        <time>2018-05-22T15:07:45Z</time>
      </trkpt>
    </trkseg>
  </trk>
</gpx>